Observation data for Amarillo 7 South Southeast on 07/20/2019      Previous  Date       Current Mesonet Observations  Soil Data  Daily Summary Page  Observations in Plain Language
KAM1 200500Z 18011KT 29/13 A2994 RMK A01 T02920131  RH  037%=      5-min Rain = 0
KAM1 200501Z 18012KT 29/13 A2994 RMK A01 T02920131  RH  037%=      5-min Rain = 0
KAM1 200502Z 18013KT 29/13 A2994 RMK A01 T02920131  RH  037%=      5-min Rain = 0
KAM1 200503Z 18012KT 29/13 A2994 RMK A01 T02920131  RH  037%=      5-min Rain = 0
KAM1 200504Z 18012KT 29/13 A2994 RMK A01 T02920132  RH  037%=      5-min Rain = 0
KAM1 200505Z 18010KT 29/13 A2994 RMK A01 T02910132  RH  038%=      5-min Rain = 0
KAM1 200506Z 18011KT 29/13 A2994 RMK A01 T02910132  RH  038%=      5-min Rain = 0
KAM1 200507Z 18011G16KT 29/13 A2994 RMK A01 T02900132  RH  038%=      5-min Rain = 0
KAM1 200508Z 18011KT 29/13 A2994 RMK A01 T02900132  RH  038%=      5-min Rain = 0
KAM1 200509Z 18011KT 29/13 A2994 RMK A01 T02900132  RH  038%=      5-min Rain = 0
KAM1 200510Z 18012KT 29/13 A2994 RMK A01 T02900132  RH  038%=      5-min Rain = 0
KAM1 200511Z 18012KT 29/13 A2994 RMK A01 T02900132  RH  038%=      5-min Rain = 0
KAM1 200512Z 18014KT 29/13 A2994 RMK A01 T02900132  RH  038%=      5-min Rain = 0
KAM1 200513Z 18014KT 29/13 A2994 RMK A01 T02910132  RH  038%=      5-min Rain = 0
KAM1 200514Z 18011KT 29/13 A2994 RMK A01 T02910133  RH  038%=      5-min Rain = 0
KAM1 200515Z 18012KT 29/13 A2994 RMK A01 T02910133  RH  038%=      5-min Rain = 0
KAM1 200516Z 18011KT 29/13 A2994 RMK A01 T02900133  RH  038%=      5-min Rain = 0
KAM1 200517Z 18012KT 29/13 A2995 RMK A01 T02900133  RH  038%=      5-min Rain = 0
KAM1 200518Z 17010KT 29/13 A2995 RMK A01 T02900133  RH  038%=      5-min Rain = 0
KAM1 200519Z 17011KT 29/13 A2995 RMK A01 T02890133  RH  038%=      5-min Rain = 0
KAM1 200520Z 17011KT 29/13 A2995 RMK A01 T02880133  RH  038%=      5-min Rain = 0
KAM1 200521Z 18010KT 29/13 A2995 RMK A01 T02890133  RH  038%=      5-min Rain = 0
KAM1 200522Z 18011KT 29/13 A2995 RMK A01 T02880133  RH  038%=      5-min Rain = 0
KAM1 200523Z 18010KT 29/13 A2995 RMK A01 T02870133  RH  039%=      5-min Rain = 0
KAM1 200524Z 18011KT 29/13 A2995 RMK A01 T02870133  RH  039%=      5-min Rain = 0
KAM1 200525Z 17011KT 29/13 A2995 RMK A01 T02860133  RH  039%=      5-min Rain = 0
KAM1 200526Z 17012KT 29/13 A2995 RMK A01 T02870133  RH  039%=      5-min Rain = 0
KAM1 200527Z 17011KT 29/13 A2995 RMK A01 T02870133  RH  039%=      5-min Rain = 0
KAM1 200528Z 17010KT 29/13 A2995 RMK A01 T02860133  RH  039%=      5-min Rain = 0
KAM1 200529Z 17010KT 29/13 A2995 RMK A01 T02850133  RH  039%=      5-min Rain = 0
KAM1 200530Z 17010KT 28/13 A2995 RMK A01 T02840133  RH  039%=      5-min Rain = 0
KAM1 200531Z 17009KT 28/13 A2995 RMK A01 T02830133  RH  040%=      5-min Rain = 0
KAM1 200532Z 17010KT 28/13 A2995 RMK A01 T02820133  RH  040%=      5-min Rain = 0
KAM1 200533Z 17009KT 28/13 A2995 RMK A01 T02820133  RH  040%=      5-min Rain = 0
KAM1 200534Z 17009KT 28/13 A2995 RMK A01 T02810133  RH  040%=      5-min Rain = 0
KAM1 200535Z 17010KT 28/13 A2995 RMK A01 T02800133  RH  040%=      5-min Rain = 0
KAM1 200536Z 18008KT 28/13 A2995 RMK A01 T02800133  RH  040%=      5-min Rain = 0
KAM1 200537Z 18009KT 28/13 A2995 RMK A01 T02790133  RH  041%=      5-min Rain = 0
KAM1 200538Z 18009KT 28/13 A2995 RMK A01 T02780133  RH  041%=      5-min Rain = 0
KAM1 200539Z 18009KT 28/13 A2995 RMK A01 T02780133  RH  041%=      5-min Rain = 0
KAM1 200540Z 18008KT 28/13 A2995 RMK A01 T02770133  RH  041%=      5-min Rain = 0
KAM1 200541Z 17009KT 28/13 A2995 RMK A01 T02760133  RH  041%=      5-min Rain = 0
KAM1 200542Z 17008KT 28/13 A2995 RMK A01 T02760133  RH  041%=      5-min Rain = 0
KAM1 200543Z 17009KT 28/13 A2995 RMK A01 T02750133  RH  042%=      5-min Rain = 0
KAM1 200544Z 17008KT 27/13 A2995 RMK A01 T02740133  RH  042%=      5-min Rain = 0
KAM1 200545Z 17009KT 27/13 A2995 RMK A01 T02740133  RH  042%=      5-min Rain = 0
KAM1 200546Z 16009KT 27/13 A2995 RMK A01 T02730133  RH  042%=      5-min Rain = 0
KAM1 200547Z 16007KT 27/13 A2995 RMK A01 T02720134  RH  042%=      5-min Rain = 0
KAM1 200548Z 16007KT 27/13 A2995 RMK A01 T02710134  RH  043%=      5-min Rain = 0
KAM1 200549Z 16007KT 27/13 A2995 RMK A01 T02690134  RH  043%=      5-min Rain = 0
KAM1 200550Z 16007KT 27/13 A2995 RMK A01 T02680134  RH  044%=      5-min Rain = 0
KAM1 200551Z 16006KT 27/13 A2995 RMK A01 T02660134  RH  044%=      5-min Rain = 0
KAM1 200552Z 16007KT 26/13 A2995 RMK A01 T02640134  RH  044%=      5-min Rain = 0
KAM1 200553Z 16008KT 26/13 A2995 RMK A01 T02630134  RH  045%=      5-min Rain = 0
KAM1 200554Z 16008KT 26/13 A2995 RMK A01 T02620134  RH  045%=      5-min Rain = 0
KAM1 200555Z 16009KT 26/13 A2995 RMK A01 T02630134  RH  045%=      5-min Rain = 0
KAM1 200556Z 17009KT 26/13 A2995 RMK A01 T02620134  RH  045%=      5-min Rain = 0
KAM1 200557Z 16009KT 26/13 A2995 RMK A01 T02620134  RH  045%=      5-min Rain = 0
KAM1 200558Z 17008KT 26/13 A2995 RMK A01 T02620134  RH  045%=      5-min Rain = 0
KAM1 200559Z 16009KT 26/13 A2995 RMK A01 T02620134  RH  045%=      5-min Rain = 0
KAM1 200600Z 17009KT 26/13 A2995 RMK A01 T02620134  RH  045%=      5-min Rain = 0
KAM1 200601Z 17009KT 26/13 A2995 RMK A01 T02620134  RH  045%=      5-min Rain = 0
KAM1 200602Z 17009KT 26/13 A2995 RMK A01 T02630134  RH  045%=      5-min Rain = 0
KAM1 200603Z 17009KT 26/13 A2995 RMK A01 T02630134  RH  045%=      5-min Rain = 0
KAM1 200604Z 18009KT 26/13 A2995 RMK A01 T02630134  RH  045%=      5-min Rain = 0
KAM1 200605Z 17009KT 26/13 A2995 RMK A01 T02630134  RH  045%=      5-min Rain = 0
KAM1 200606Z 17009KT 26/13 A2995 RMK A01 T02620134  RH  045%=      5-min Rain = 0
KAM1 200607Z 18008KT 26/13 A2995 RMK A01 T02620134  RH  045%=      5-min Rain = 0
KAM1 200608Z 18010KT 26/13 A2995 RMK A01 T02610134  RH  045%=      5-min Rain = 0
KAM1 200609Z 18008KT 26/13 A2995 RMK A01 T02610134  RH  045%=      5-min Rain = 0
KAM1 200610Z 18008KT 26/13 A2995 RMK A01 T02610134  RH  045%=      5-min Rain = 0
KAM1 200611Z 18008KT 26/13 A2995 RMK A01 T02610134  RH  045%=      5-min Rain = 0
KAM1 200612Z 18009KT 26/13 A2995 RMK A01 T02610134  RH  045%=      5-min Rain = 0
KAM1 200613Z 18009KT 26/13 A2995 RMK A01 T02610134  RH  045%=      5-min Rain = 0
KAM1 200614Z 19009KT 26/13 A2995 RMK A01 T02610134  RH  046%=      5-min Rain = 0
KAM1 200615Z 19008KT 26/13 A2995 RMK A01 T02600134  RH  046%=      5-min Rain = 0
KAM1 200616Z 19008KT 26/13 A2995 RMK A01 T02600134  RH  046%=      5-min Rain = 0
KAM1 200617Z 19010KT 26/13 A2995 RMK A01 T02590134  RH  046%=      5-min Rain = 0
KAM1 200618Z 19008KT 26/13 A2995 RMK A01 T02600134  RH  046%=      5-min Rain = 0
KAM1 200619Z 18009KT 26/13 A2995 RMK A01 T02600134  RH  046%=      5-min Rain = 0
KAM1 200620Z 19009KT 26/13 A2995 RMK A01 T02600134  RH  046%=      5-min Rain = 0
KAM1 200621Z 18010KT 26/13 A2995 RMK A01 T02600134  RH  046%=      5-min Rain = 0
KAM1 200622Z 19009KT 26/13 A2995 RMK A01 T02600134  RH  046%=      5-min Rain = 0
KAM1 200623Z 18010KT 26/14 A2995 RMK A01 T02600135  RH  046%=      5-min Rain = 0
KAM1 200624Z 18009KT 26/14 A2995 RMK A01 T02600135  RH  046%=      5-min Rain = 0
KAM1 200625Z 18010KT 26/13 A2995 RMK A01 T02600134  RH  046%=      5-min Rain = 0
KAM1 200626Z 18010KT 26/14 A2995 RMK A01 T02600135  RH  046%=      5-min Rain = 0
KAM1 200627Z 18010KT 26/14 A2995 RMK A01 T02600135  RH  046%=      5-min Rain = 0
KAM1 200628Z 18008KT 26/14 A2995 RMK A01 T02600135  RH  046%=      5-min Rain = 0
KAM1 200629Z 18008KT 26/14 A2995 RMK A01 T02590135  RH  046%=      5-min Rain = 0
KAM1 200630Z 18008KT 26/14 A2995 RMK A01 T02580135  RH  046%=      5-min Rain = 0
KAM1 200631Z 18008KT 26/14 A2995 RMK A01 T02580135  RH  046%=      5-min Rain = 0
KAM1 200632Z 18008KT 26/14 A2995 RMK A01 T02570135  RH  047%=      5-min Rain = 0
KAM1 200633Z 18008KT 26/14 A2995 RMK A01 T02570135  RH  047%=      5-min Rain = 0
KAM1 200634Z 18009KT 26/14 A2995 RMK A01 T02570135  RH  047%=      5-min Rain = 0
KAM1 200635Z 18008KT 26/14 A2995 RMK A01 T02570135  RH  047%=      5-min Rain = 0
KAM1 200636Z 19009KT 26/14 A2995 RMK A01 T02570135  RH  047%=      5-min Rain = 0
KAM1 200637Z 18009KT 26/14 A2995 RMK A01 T02560135  RH  047%=      5-min Rain = 0
KAM1 200638Z 18009KT 26/14 A2996 RMK A01 T02560135  RH  047%=      5-min Rain = 0
KAM1 200639Z 19012KT 26/14 A2996 RMK A01 T02560135  RH  047%=      5-min Rain = 0
KAM1 200640Z 18009KT 26/14 A2996 RMK A01 T02570136  RH  047%=      5-min Rain = 0
KAM1 200641Z 18010KT 26/14 A2995 RMK A01 T02580136  RH  047%=      5-min Rain = 0
KAM1 200642Z 18009KT 26/14 A2995 RMK A01 T02590136  RH  047%=      5-min Rain = 0
KAM1 200643Z 18010KT 26/14 A2995 RMK A01 T02590137  RH  047%=      5-min Rain = 0
KAM1 200644Z 18010KT 26/14 A2995 RMK A01 T02590136  RH  047%=      5-min Rain = 0
KAM1 200645Z 18011KT 26/14 A2995 RMK A01 T02600136  RH  046%=      5-min Rain = 0
KAM1 200646Z 17010KT 26/14 A2995 RMK A01 T02610136  RH  046%=      5-min Rain = 0
KAM1 200647Z 18010KT 26/14 A2995 RMK A01 T02610136  RH  046%=      5-min Rain = 0
KAM1 200648Z 17010KT 26/14 A2995 RMK A01 T02610136  RH  046%=      5-min Rain = 0
KAM1 200649Z 18010KT 26/14 A2995 RMK A01 T02600137  RH  046%=      5-min Rain = 0
KAM1 200650Z 18010KT 26/14 A2995 RMK A01 T02600137  RH  046%=      5-min Rain = 0
KAM1 200651Z 18010KT 26/14 A2995 RMK A01 T02600136  RH  046%=      5-min Rain = 0
KAM1 200652Z 18011KT 26/14 A2995 RMK A01 T02590136  RH  047%=      5-min Rain = 0
KAM1 200653Z 18011KT 26/14 A2995 RMK A01 T02590136  RH  047%=      5-min Rain = 0
KAM1 200654Z 19011KT 26/14 A2995 RMK A01 T02600136  RH  046%=      5-min Rain = 0
KAM1 200655Z 19009KT 26/14 A2995 RMK A01 T02610137  RH  046%=      5-min Rain = 0
KAM1 200656Z 19012G17KT 26/14 A2995 RMK A01 T02600136  RH  046%=      5-min Rain = 0
KAM1 200657Z 19010KT 26/14 A2995 RMK A01 T02600136  RH  046%=      5-min Rain = 0
KAM1 200658Z 19011KT 26/14 A2995 RMK A01 T02610136  RH  046%=      5-min Rain = 0
KAM1 200659Z 18010KT 26/14 A2995 RMK A01 T02620136  RH  046%=      5-min Rain = 0
KAM1 200700Z 19012KT 26/14 A2995 RMK A01 T02620136  RH  046%=      5-min Rain = 0
KAM1 200701Z 18012KT 26/14 A2995 RMK A01 T02630136  RH  045%=      5-min Rain = 0
KAM1 200702Z 18010KT 26/14 A2995 RMK A01 T02640136  RH  045%=      5-min Rain = 0
KAM1 200703Z 18012G18KT 26/14 A2995 RMK A01 T02640136  RH  045%=      5-min Rain = 0
KAM1 200704Z 19010KT 26/14 A2995 RMK A01 T02640135  RH  045%=      5-min Rain = 0
KAM1 200705Z 19011KT 26/14 A2995 RMK A01 T02630135  RH  045%=      5-min Rain = 0
KAM1 200706Z 18011KT 26/14 A2995 RMK A01 T02630135  RH  045%=      5-min Rain = 0
KAM1 200707Z 18010KT 26/14 A2995 RMK A01 T02630135  RH  045%=      5-min Rain = 0
KAM1 200708Z 18012KT 26/14 A2995 RMK A01 T02630135  RH  045%=      5-min Rain = 0
KAM1 200709Z 18011KT 26/14 A2995 RMK A01 T02630135  RH  045%=      5-min Rain = 0
KAM1 200710Z 19011KT 26/14 A2995 RMK A01 T02630135  RH  045%=      5-min Rain = 0
KAM1 200711Z 19010KT 26/13 A2995 RMK A01 T02640134  RH  045%=      5-min Rain = 0
KAM1 200712Z 19012KT 26/13 A2995 RMK A01 T02630134  RH  045%=      5-min Rain = 0
KAM1 200713Z 19014KT 26/13 A2995 RMK A01 T02630134  RH  045%=      5-min Rain = 0
KAM1 200714Z 18011KT 26/13 A2995 RMK A01 T02640134  RH  044%=      5-min Rain = 0
KAM1 200715Z 18013KT 27/13 A2995 RMK A01 T02650133  RH  044%=      5-min Rain = 0
KAM1 200716Z 19013KT 27/13 A2995 RMK A01 T02650133  RH  044%=      5-min Rain = 0
KAM1 200717Z 19011KT 27/13 A2995 RMK A01 T02650133  RH  044%=      5-min Rain = 0
KAM1 200718Z 19012KT 27/13 A2995 RMK A01 T02660133  RH  044%=      5-min Rain = 0
KAM1 200719Z 19010KT 27/13 A2995 RMK A01 T02650133  RH  044%=      5-min Rain = 0
KAM1 200720Z 19011G16KT 27/13 A2995 RMK A01 T02650133  RH  044%=      5-min Rain = 0
KAM1 200721Z 19011KT 26/13 A2995 RMK A01 T02640132  RH  044%=      5-min Rain = 0
KAM1 200722Z 19012KT 26/13 A2995 RMK A01 T02630132  RH  044%=      5-min Rain = 0
KAM1 200723Z 19011KT 26/13 A2995 RMK A01 T02640131  RH  044%=      5-min Rain = 0
KAM1 200724Z 19011KT 26/13 A2995 RMK A01 T02640131  RH  044%=      5-min Rain = 0
KAM1 200725Z 19012KT 26/13 A2995 RMK A01 T02640131  RH  044%=      5-min Rain = 0
KAM1 200726Z 19012KT 26/13 A2995 RMK A01 T02640131  RH  044%=      5-min Rain = 0
KAM1 200727Z 19013KT 26/13 A2995 RMK A01 T02640131  RH  044%=      5-min Rain = 0
KAM1 200728Z 20013KT 26/13 A2995 RMK A01 T02640131  RH  044%=      5-min Rain = 0
KAM1 200729Z 19010KT 26/13 A2995 RMK A01 T02640130  RH  043%=      5-min Rain = 0
KAM1 200730Z 19013KT 26/13 A2995 RMK A01 T02640130  RH  043%=      5-min Rain = 0
KAM1 200731Z 20013KT 26/13 A2995 RMK A01 T02640129  RH  043%=      5-min Rain = 0
KAM1 200732Z 19011KT 27/13 A2995 RMK A01 T02650130  RH  043%=      5-min Rain = 0
KAM1 200733Z 20013KT 27/13 A2995 RMK A01 T02650129  RH  043%=      5-min Rain = 0
KAM1 200734Z 19012KT 27/13 A2995 RMK A01 T02650129  RH  043%=      5-min Rain = 0
KAM1 200735Z 19011KT 27/13 A2995 RMK A01 T02650129  RH  043%=      5-min Rain = 0
KAM1 200736Z 19012KT 27/13 A2995 RMK A01 T02650129  RH  043%=      5-min Rain = 0
KAM1 200737Z 19013G18KT 27/13 A2995 RMK A01 T02650129  RH  043%=      5-min Rain = 0
KAM1 200738Z 20012KT 26/13 A2995 RMK A01 T02640128  RH  043%=      5-min Rain = 0
KAM1 200739Z 19009KT 27/13 A2995 RMK A01 T02650128  RH  043%=      5-min Rain = 0
KAM1 200740Z 19012KT 26/13 A2995 RMK A01 T02640128  RH  043%=      5-min Rain = 0
KAM1 200741Z 19012KT 26/13 A2995 RMK A01 T02640128  RH  043%=      5-min Rain = 0
KAM1 200742Z 19010KT 26/13 A2995 RMK A01 T02630127  RH  043%=      5-min Rain = 0
KAM1 200743Z 19011KT 26/13 A2995 RMK A01 T02630127  RH  043%=      5-min Rain = 0
KAM1 200744Z 20011KT 26/13 A2995 RMK A01 T02630127  RH  043%=      5-min Rain = 0
KAM1 200745Z 19011KT 26/13 A2995 RMK A01 T02620126  RH  043%=      5-min Rain = 0
KAM1 200746Z 19011KT 26/13 A2995 RMK A01 T02630126  RH  043%=      5-min Rain = 0
KAM1 200747Z 19013G18KT 26/13 A2995 RMK A01 T02630126  RH  043%=      5-min Rain = 0
KAM1 200748Z 19012KT 26/13 A2995 RMK A01 T02630125  RH  042%=      5-min Rain = 0
KAM1 200749Z 19012G17KT 26/13 A2995 RMK A01 T02640125  RH  042%=      5-min Rain = 0
KAM1 200750Z 19014KT 26/13 A2995 RMK A01 T02640125  RH  042%=      5-min Rain = 0
KAM1 200751Z 19013KT 26/13 A2995 RMK A01 T02640125  RH  042%=      5-min Rain = 0
KAM1 200752Z 20011KT 27/13 A2995 RMK A01 T02650125  RH  042%=      5-min Rain = 0
KAM1 200753Z 20011KT 27/13 A2995 RMK A01 T02650125  RH  042%=      5-min Rain = 0
KAM1 200754Z 19011KT 26/13 A2995 RMK A01 T02640125  RH  042%=      5-min Rain = 0
KAM1 200755Z 19013KT 26/13 A2995 RMK A01 T02630125  RH  042%=      5-min Rain = 0
KAM1 200756Z 19011KT 26/12 A2995 RMK A01 T02620124  RH  042%=      5-min Rain = 0
KAM1 200757Z 20013KT 26/12 A2995 RMK A01 T02620124  RH  042%=      5-min Rain = 0
KAM1 200758Z 19011KT 26/12 A2995 RMK A01 T02630123  RH  042%=      5-min Rain = 0
KAM1 200759Z 20013KT 26/12 A2995 RMK A01 T02630124  RH  042%=      5-min Rain = 0
KAM1 200800Z 20011KT 26/12 A2995 RMK A01 T02630123  RH  042%=      5-min Rain = 0
KAM1 200801Z 20010G15KT 26/12 A2995 RMK A01 T02630124  RH  042%=      5-min Rain = 0
KAM1 200802Z 19012KT 26/12 A2995 RMK A01 T02630123  RH  042%=      5-min Rain = 0
KAM1 200803Z 20012KT 26/12 A2995 RMK A01 T02620122  RH  042%=      5-min Rain = 0
KAM1 200804Z 20012KT 26/12 A2995 RMK A01 T02620122  RH  042%=      5-min Rain = 0
KAM1 200805Z 20009KT 26/12 A2995 RMK A01 T02620122  RH  042%=      5-min Rain = 0
KAM1 200806Z 20014KT 26/12 A2995 RMK A01 T02630122  RH  042%=      5-min Rain = 0
KAM1 200807Z 20014KT 26/12 A2995 RMK A01 T02630122  RH  042%=      5-min Rain = 0
KAM1 200808Z 20011KT 26/12 A2995 RMK A01 T02630122  RH  041%=      5-min Rain = 0
KAM1 200809Z 20011KT 26/12 A2995 RMK A01 T02630122  RH  041%=      5-min Rain = 0
KAM1 200810Z 20012KT 26/12 A2995 RMK A01 T02630122  RH  042%=      5-min Rain = 0
KAM1 200811Z 20012KT 26/12 A2995 RMK A01 T02620122  RH  042%=      5-min Rain = 0
KAM1 200812Z 20013KT 26/12 A2995 RMK A01 T02620122  RH  042%=      5-min Rain = 0
KAM1 200813Z 20010KT 26/12 A2995 RMK A01 T02620122  RH  042%=      5-min Rain = 0
KAM1 200814Z 20010G17KT 26/12 A2995 RMK A01 T02610122  RH  042%=      5-min Rain = 0
KAM1 200815Z 20013G19KT 26/12 A2995 RMK A01 T02600121  RH  042%=      5-min Rain = 0
KAM1 200816Z 20013KT 26/12 A2995 RMK A01 T02600121  RH  042%=      5-min Rain = 0
KAM1 200817Z 20013G19KT 26/12 A2995 RMK A01 T02610121  RH  042%=      5-min Rain = 0
KAM1 200818Z 20013KT 26/12 A2995 RMK A01 T02610121  RH  042%=      5-min Rain = 0
KAM1 200819Z 20012KT 26/12 A2995 RMK A01 T02610120  RH  042%=      5-min Rain = 0
KAM1 200820Z 20013KT 26/12 A2995 RMK A01 T02610120  RH  041%=      5-min Rain = 0
KAM1 200821Z 19014KT 26/12 A2995 RMK A01 T02610120  RH  041%=      5-min Rain = 0
KAM1 200822Z 20014KT 26/12 A2995 RMK A01 T02610120  RH  041%=      5-min Rain = 0
KAM1 200823Z 20012KT 26/12 A2995 RMK A01 T02610120  RH  041%=      5-min Rain = 0
KAM1 200824Z 20010KT 26/12 A2996 RMK A01 T02610120  RH  041%=      5-min Rain = 0
KAM1 200825Z 20011KT 26/12 A2996 RMK A01 T02610120  RH  042%=      5-min Rain = 0
KAM1 200826Z 20009KT 26/12 A2996 RMK A01 T02600120  RH  042%=      5-min Rain = 0
KAM1 200827Z 20009KT 26/12 A2996 RMK A01 T02590120  RH  042%=      5-min Rain = 0
KAM1 200828Z 20011KT 26/12 A2996 RMK A01 T02570120  RH  042%=      5-min Rain = 0
KAM1 200829Z 20012KT 26/12 A2995 RMK A01 T02570120  RH  042%=      5-min Rain = 0
KAM1 200830Z 20011G17KT 26/12 A2995 RMK A01 T02570120  RH  042%=      5-min Rain = 0
KAM1 200831Z 20012KT 26/12 A2996 RMK A01 T02580120  RH  042%=      5-min Rain = 0
KAM1 200832Z 20012KT 26/12 A2995 RMK A01 T02580120  RH  042%=      5-min Rain = 0
KAM1 200833Z 21012KT 26/12 A2995 RMK A01 T02570120  RH  042%=      5-min Rain = 0
KAM1 200834Z 20012KT 26/12 A2995 RMK A01 T02570120  RH  042%=      5-min Rain = 0
KAM1 200835Z 20013KT 26/12 A2995 RMK A01 T02560119  RH  042%=      5-min Rain = 0
KAM1 200836Z 20012KT 26/12 A2995 RMK A01 T02570119  RH  042%=      5-min Rain = 0
KAM1 200837Z 20013KT 26/12 A2995 RMK A01 T02570119  RH  042%=      5-min Rain = 0
KAM1 200838Z 20013KT 26/12 A2995 RMK A01 T02580119  RH  042%=      5-min Rain = 0
KAM1 200839Z 20012KT 26/12 A2995 RMK A01 T02580119  RH  042%=      5-min Rain = 0
KAM1 200840Z 20009KT 26/12 A2995 RMK A01 T02580119  RH  042%=      5-min Rain = 0
KAM1 200841Z 20010KT 26/12 A2995 RMK A01 T02570119  RH  042%=      5-min Rain = 0
KAM1 200842Z 20014KT 26/12 A2995 RMK A01 T02570119  RH  042%=      5-min Rain = 0
KAM1 200843Z 20012KT 26/12 A2995 RMK A01 T02570119  RH  042%=      5-min Rain = 0
KAM1 200844Z 20011KT 26/12 A2995 RMK A01 T02570119  RH  042%=      5-min Rain = 0
KAM1 200845Z 20012KT 26/12 A2995 RMK A01 T02570119  RH  042%=      5-min Rain = 0
KAM1 200846Z 20011KT 26/12 A2995 RMK A01 T02560119  RH  042%=      5-min Rain = 0
KAM1 200847Z 20010KT 26/12 A2995 RMK A01 T02560119  RH  042%=      5-min Rain = 0
KAM1 200848Z 20009KT 26/12 A2995 RMK A01 T02550119  RH  043%=      5-min Rain = 0
KAM1 200849Z 21010G15KT 25/12 A2995 RMK A01 T02540119  RH  043%=      5-min Rain = 0
KAM1 200850Z 21010KT 25/12 A2995 RMK A01 T02530119  RH  043%=      5-min Rain = 0
KAM1 200851Z 21011KT 25/12 A2995 RMK A01 T02530119  RH  043%=      5-min Rain = 0
KAM1 200852Z 21011KT 25/12 A2995 RMK A01 T02530119  RH  043%=      5-min Rain = 0
KAM1 200853Z 21012G17KT 25/12 A2995 RMK A01 T02530119  RH  043%=      5-min Rain = 0
KAM1 200854Z 20013KT 25/12 A2995 RMK A01 T02530119  RH  043%=      5-min Rain = 0
KAM1 200855Z 21013KT 25/12 A2995 RMK A01 T02530119  RH  043%=      5-min Rain = 0
KAM1 200856Z 21012KT 25/12 A2995 RMK A01 T02530119  RH  043%=      5-min Rain = 0
KAM1 200857Z 21012KT 25/12 A2995 RMK A01 T02530119  RH  043%=      5-min Rain = 0
KAM1 200858Z 21013KT 25/12 A2995 RMK A01 T02540119  RH  043%=      5-min Rain = 0
KAM1 200859Z 21010KT 25/12 A2995 RMK A01 T02540118  RH  043%=      5-min Rain = 0
KAM1 200900Z 21010KT 25/12 A2995 RMK A01 T02540119  RH  043%=      5-min Rain = 0
KAM1 200901Z 21010KT 25/12 A2995 RMK A01 T02530119  RH  043%=      5-min Rain = 0
KAM1 200902Z 20010KT 25/12 A2995 RMK A01 T02520119  RH  043%=      5-min Rain = 0
KAM1 200903Z 20013KT 25/12 A2995 RMK A01 T02520119  RH  043%=      5-min Rain = 0
KAM1 200904Z 20011KT 25/12 A2995 RMK A01 T02520119  RH  043%=      5-min Rain = 0
KAM1 200905Z 21013KT 25/12 A2995 RMK A01 T02530119  RH  043%=      5-min Rain = 0
KAM1 200906Z 21013KT 25/12 A2995 RMK A01 T02530119  RH  043%=      5-min Rain = 0
KAM1 200907Z 21011KT 25/12 A2995 RMK A01 T02530118  RH  043%=      5-min Rain = 0
KAM1 200908Z 21012KT 25/12 A2995 RMK A01 T02530118  RH  043%=      5-min Rain = 0
KAM1 200909Z 21011KT 25/12 A2995 RMK A01 T02530119  RH  043%=      5-min Rain = 0
KAM1 200910Z 21012KT 25/12 A2995 RMK A01 T02520119  RH  043%=      5-min Rain = 0
KAM1 200911Z 21012KT 25/12 A2995 RMK A01 T02520119  RH  043%=      5-min Rain = 0
KAM1 200912Z 21012KT 25/12 A2995 RMK A01 T02520119  RH  043%=      5-min Rain = 0
KAM1 200913Z 21012KT 25/12 A2995 RMK A01 T02520119  RH  043%=      5-min Rain = 0
KAM1 200914Z 21012KT 25/12 A2995 RMK A01 T02520119  RH  043%=      5-min Rain = 0
KAM1 200915Z 21011KT 25/12 A2995 RMK A01 T02520119  RH  044%=      5-min Rain = 0
KAM1 200916Z 21013KT 25/12 A2995 RMK A01 T02510119  RH  044%=      5-min Rain = 0
KAM1 200917Z 21012G17KT 25/12 A2995 RMK A01 T02520119  RH  044%=      5-min Rain = 0
KAM1 200918Z 21012KT 25/12 A2995 RMK A01 T02520119  RH  043%=      5-min Rain = 0
KAM1 200919Z 21012KT 25/12 A2995 RMK A01 T02520119  RH  044%=      5-min Rain = 0
KAM1 200920Z 21013KT 25/12 A2995 RMK A01 T02520119  RH  044%=      5-min Rain = 0
KAM1 200921Z 21013KT 25/12 A2995 RMK A01 T02510119  RH  044%=      5-min Rain = 0
KAM1 200922Z 21014KT 25/12 A2995 RMK A01 T02510119  RH  044%=      5-min Rain = 0
KAM1 200923Z 21012KT 25/12 A2995 RMK A01 T02510119  RH  044%=      5-min Rain = 0
KAM1 200924Z 21011KT 25/12 A2995 RMK A01 T02520120  RH  044%=      5-min Rain = 0
KAM1 200925Z 21013KT 25/12 A2995 RMK A01 T02510119  RH  044%=      5-min Rain = 0
KAM1 200926Z 21011KT 25/12 A2995 RMK A01 T02510119  RH  044%=      5-min Rain = 0
KAM1 200927Z 21013KT 25/12 A2995 RMK A01 T02510120  RH  044%=      5-min Rain = 0
KAM1 200928Z 21012G20KT 25/12 A2995 RMK A01 T02510120  RH  044%=      5-min Rain = 0
KAM1 200929Z 21012G17KT 25/12 A2995 RMK A01 T02510120  RH  044%=      5-min Rain = 0
KAM1 200930Z 22013KT 25/12 A2995 RMK A01 T02510120  RH  044%=      5-min Rain = 0
KAM1 200931Z 21011KT 25/12 A2995 RMK A01 T02510120  RH  044%=      5-min Rain = 0
KAM1 200932Z 21013KT 25/12 A2995 RMK A01 T02510120  RH  044%=      5-min Rain = 0
KAM1 200933Z 21010KT 25/12 A2995 RMK A01 T02510120  RH  044%=      5-min Rain = 0
KAM1 200934Z 21011KT 25/12 A2995 RMK A01 T02510120  RH  044%=      5-min Rain = 0
KAM1 200935Z 21012KT 25/12 A2995 RMK A01 T02500120  RH  044%=      5-min Rain = 0
KAM1 200936Z 21011KT 25/12 A2995 RMK A01 T02500120  RH  044%=      5-min Rain = 0
KAM1 200937Z 21011KT 25/12 A2995 RMK A01 T02500120  RH  044%=      5-min Rain = 0
KAM1 200938Z 21013KT 25/12 A2995 RMK A01 T02500120  RH  044%=      5-min Rain = 0
KAM1 200939Z 21011KT 25/12 A2995 RMK A01 T02500120  RH  044%=      5-min Rain = 0
KAM1 200940Z 21012KT 25/12 A2995 RMK A01 T02500120  RH  044%=      5-min Rain = 0
KAM1 200941Z 21015KT 25/12 A2995 RMK A01 T02500120  RH  044%=      5-min Rain = 0
KAM1 200942Z 21013KT 25/12 A2995 RMK A01 T02500120  RH  044%=      5-min Rain = 0
KAM1 200943Z 21012KT 25/12 A2995 RMK A01 T02510120  RH  044%=      5-min Rain = 0
KAM1 200944Z 21014KT 25/12 A2995 RMK A01 T02510121  RH  044%=      5-min Rain = 0
KAM1 200945Z 21012G17KT 25/12 A2995 RMK A01 T02500120  RH  044%=      5-min Rain = 0
KAM1 200946Z 21014KT 25/12 A2995 RMK A01 T02500121  RH  044%=      5-min Rain = 0
KAM1 200947Z 21014KT 25/12 A2995 RMK A01 T02500120  RH  044%=      5-min Rain = 0
KAM1 200948Z 21014G20KT 25/12 A2995 RMK A01 T02510121  RH  044%=      5-min Rain = 0
KAM1 200949Z 21018KT 25/12 A2994 RMK A01 T02510121  RH  044%=      5-min Rain = 0
KAM1 200950Z 21016KT 25/12 A2994 RMK A01 T02520121  RH  044%=      5-min Rain = 0
KAM1 200951Z 20013KT 25/12 A2994 RMK A01 T02520121  RH  044%=      5-min Rain = 0
KAM1 200952Z 21012KT 25/12 A2994 RMK A01 T02520121  RH  044%=      5-min Rain = 0
KAM1 200953Z 21011KT 25/12 A2995 RMK A01 T02510121  RH  044%=      5-min Rain = 0
KAM1 200954Z 21014KT 25/12 A2995 RMK A01 T02500121  RH  044%=      5-min Rain = 0
KAM1 200955Z 21013G18KT 25/12 A2995 RMK A01 T02500121  RH  045%=      5-min Rain = 0
KAM1 200956Z 21013KT 25/12 A2995 RMK A01 T02500121  RH  045%=      5-min Rain = 0
KAM1 200957Z 21012KT 25/12 A2995 RMK A01 T02500121  RH  045%=      5-min Rain = 0
KAM1 200958Z 22012G19KT 25/12 A2995 RMK A01 T02500121  RH  045%=      5-min Rain = 0
KAM1 200959Z 21014KT 25/12 A2995 RMK A01 T02500121  RH  045%=      5-min Rain = 0
KAM1 201000Z 22013KT 25/12 A2995 RMK A01 T02500121  RH  045%=      5-min Rain = 0
KAM1 201001Z 21013KT 25/12 A2995 RMK A01 T02500121  RH  045%=      5-min Rain = 0
KAM1 201002Z 21010KT 25/12 A2995 RMK A01 T02500122  RH  045%=      5-min Rain = 0
KAM1 201003Z 21012KT 25/12 A2995 RMK A01 T02490121  RH  045%=      5-min Rain = 0
KAM1 201004Z 21011KT 25/12 A2995 RMK A01 T02480122  RH  045%=      5-min Rain = 0
KAM1 201005Z 21012KT 25/12 A2995 RMK A01 T02480122  RH  045%=      5-min Rain = 0
KAM1 201006Z 21015G20KT 25/12 A2995 RMK A01 T02470122  RH  045%=      5-min Rain = 0
KAM1 201007Z 21013KT 25/12 A2995 RMK A01 T02480121  RH  045%=      5-min Rain = 0
KAM1 201008Z 21013G18KT 25/12 A2995 RMK A01 T02480122  RH  045%=      5-min Rain = 0
KAM1 201009Z 21013KT 25/12 A2995 RMK A01 T02490122  RH  045%=      5-min Rain = 0
KAM1 201010Z 21010KT 25/12 A2995 RMK A01 T02490122  RH  045%=      5-min Rain = 0
KAM1 201011Z 22010G15KT 25/12 A2995 RMK A01 T02480122  RH  045%=      5-min Rain = 0
KAM1 201012Z 21011KT 25/12 A2995 RMK A01 T02460122  RH  046%=      5-min Rain = 0
KAM1 201013Z 21011G18KT 25/12 A2995 RMK A01 T02460122  RH  046%=      5-min Rain = 0
KAM1 201014Z 21011KT 25/12 A2995 RMK A01 T02460122  RH  046%=      5-min Rain = 0
KAM1 201015Z 21011KT 25/12 A2995 RMK A01 T02460122  RH  046%=      5-min Rain = 0
KAM1 201016Z 21012KT 25/12 A2995 RMK A01 T02460122  RH  046%=      5-min Rain = 0
KAM1 201017Z 21013KT 25/12 A2995 RMK A01 T02460122  RH  046%=      5-min Rain = 0
KAM1 201018Z 21014KT 25/12 A2995 RMK A01 T02470122  RH  046%=      5-min Rain = 0
KAM1 201019Z 21010KT 25/12 A2995 RMK A01 T02470122  RH  046%=      5-min Rain = 0
KAM1 201020Z 21013KT 25/12 A2995 RMK A01 T02470122  RH  046%=      5-min Rain = 0
KAM1 201021Z 21014KT 25/12 A2995 RMK A01 T02470122  RH  046%=      5-min Rain = 0
KAM1 201022Z 21012KT 25/12 A2995 RMK A01 T02470122  RH  046%=      5-min Rain = 0
KAM1 201023Z 21010KT 25/12 A2995 RMK A01 T02470122  RH  046%=      5-min Rain = 0
KAM1 201024Z 21011KT 25/12 A2995 RMK A01 T02460122  RH  046%=      5-min Rain = 0
KAM1 201025Z 22011KT 25/12 A2995 RMK A01 T02460122  RH  046%=      5-min Rain = 0
KAM1 201026Z 22011KT 25/12 A2995 RMK A01 T02460123  RH  046%=      5-min Rain = 0
KAM1 201027Z 21012KT 25/12 A2995 RMK A01 T02460123  RH  046%=      5-min Rain = 0
KAM1 201028Z 22013KT 25/12 A2995 RMK A01 T02460123  RH  046%=      5-min Rain = 0
KAM1 201029Z 21009KT 25/12 A2995 RMK A01 T02460123  RH  046%=      5-min Rain = 0
KAM1 201030Z 22010G15KT 25/12 A2995 RMK A01 T02450123  RH  046%=      5-min Rain = 0
KAM1 201031Z 22013KT 25/12 A2995 RMK A01 T02450123  RH  046%=      5-min Rain = 0
KAM1 201032Z 22013G19KT 25/12 A2995 RMK A01 T02460123  RH  046%=      5-min Rain = 0
KAM1 201033Z 22013G18KT 25/12 A2995 RMK A01 T02460123  RH  046%=      5-min Rain = 0
KAM1 201034Z 22016G21KT 25/12 A2995 RMK A01 T02460123  RH  046%=      5-min Rain = 0
KAM1 201035Z 22012KT 25/12 A2995 RMK A01 T02470123  RH  046%=      5-min Rain = 0
KAM1 201036Z 21013G19KT 25/12 A2995 RMK A01 T02470123  RH  046%=      5-min Rain = 0
KAM1 201037Z 22013KT 25/12 A2995 RMK A01 T02470123  RH  046%=      5-min Rain = 0
KAM1 201038Z 22013KT 25/12 A2995 RMK A01 T02470123  RH  046%=      5-min Rain = 0
KAM1 201039Z 22015KT 25/12 A2995 RMK A01 T02470123  RH  046%=      5-min Rain = 0
KAM1 201040Z 22012KT 25/12 A2995 RMK A01 T02470123  RH  046%=      5-min Rain = 0
KAM1 201041Z 22010KT 25/12 A2995 RMK A01 T02470123  RH  046%=      5-min Rain = 0
KAM1 201042Z 22011KT 25/12 A2995 RMK A01 T02460123  RH  046%=      5-min Rain = 0
KAM1 201043Z 22013KT 25/12 A2995 RMK A01 T02450123  RH  047%=      5-min Rain = 0
KAM1 201044Z 22014KT 25/12 A2995 RMK A01 T02450123  RH  047%=      5-min Rain = 0
KAM1 201045Z 22013KT 25/12 A2995 RMK A01 T02450123  RH  046%=      5-min Rain = 0
KAM1 201046Z 22015KT 25/12 A2995 RMK A01 T02460123  RH  046%=      5-min Rain = 0
KAM1 201047Z 22011G16KT 25/12 A2995 RMK A01 T02470123  RH  046%=      5-min Rain = 0
KAM1 201048Z 22013KT 25/12 A2995 RMK A01 T02460123  RH  046%=      5-min Rain = 0
KAM1 201049Z 22012KT 25/12 A2995 RMK A01 T02460123  RH  046%=      5-min Rain = 0
KAM1 201050Z 22013KT 25/12 A2996 RMK A01 T02460124  RH  046%=      5-min Rain = 0
KAM1 201051Z 22014KT 25/12 A2996 RMK A01 T02460124  RH  046%=      5-min Rain = 0
KAM1 201052Z 22014G20KT 25/12 A2995 RMK A01 T02460124  RH  046%=      5-min Rain = 0
KAM1 201053Z 21013KT 25/12 A2996 RMK A01 T02460124  RH  046%=      5-min Rain = 0
KAM1 201054Z 22013KT 25/12 A2996 RMK A01 T02460124  RH  046%=      5-min Rain = 0
KAM1 201055Z 21011KT 25/12 A2996 RMK A01 T02450123  RH  046%=      5-min Rain = 0
KAM1 201056Z 21014KT 25/12 A2995 RMK A01 T02450123  RH  047%=      5-min Rain = 0
KAM1 201057Z 21014KT 25/12 A2995 RMK A01 T02450123  RH  047%=      5-min Rain = 0
KAM1 201058Z 21012KT 25/12 A2995 RMK A01 T02450123  RH  047%=      5-min Rain = 0
KAM1 201059Z 22014KT 25/12 A2995 RMK A01 T02450123  RH  047%=      5-min Rain = 0
KAM1 201100Z 21014KT 25/12 A2995 RMK A01 T02450124  RH  047%=      5-min Rain = 0
KAM1 201101Z 21012KT 25/12 A2995 RMK A01 T02450124  RH  047%=      5-min Rain = 0
KAM1 201102Z 22012KT 25/12 A2996 RMK A01 T02450124  RH  047%=      5-min Rain = 0
KAM1 201103Z 21011G16KT 24/12 A2996 RMK A01 T02440124  RH  047%=      5-min Rain = 0
KAM1 201104Z 21011KT 24/12 A2996 RMK A01 T02430124  RH  047%=      5-min Rain = 0
KAM1 201105Z 22011KT 24/12 A2996 RMK A01 T02430124  RH  047%=      5-min Rain = 0
KAM1 201106Z 21012KT 24/12 A2996 RMK A01 T02430124  RH  047%=      5-min Rain = 0
KAM1 201107Z 21011KT 24/12 A2996 RMK A01 T02430124  RH  047%=      5-min Rain = 0
KAM1 201108Z 22011KT 24/12 A2996 RMK A01 T02420124  RH  048%=      5-min Rain = 0
KAM1 201109Z 22011KT 24/12 A2996 RMK A01 T02420124  RH  048%=      5-min Rain = 0
KAM1 201110Z 21012KT 24/12 A2995 RMK A01 T02410124  RH  048%=      5-min Rain = 0
KAM1 201111Z 21013KT 24/12 A2995 RMK A01 T02420124  RH  048%=      5-min Rain = 0
KAM1 201112Z 21012KT 24/12 A2995 RMK A01 T02420124  RH  048%=      5-min Rain = 0
KAM1 201113Z 21013KT 24/12 A2996 RMK A01 T02430124  RH  048%=      5-min Rain = 0
KAM1 201114Z 21013KT 24/12 A2996 RMK A01 T02430124  RH  048%=      5-min Rain = 0
KAM1 201115Z 21011KT 24/12 A2996 RMK A01 T02420124  RH  047%=      5-min Rain = 0
KAM1 201116Z 21010KT 24/12 A2996 RMK A01 T02420124  RH  048%=      5-min Rain = 0
KAM1 201117Z 21013KT 24/12 A2996 RMK A01 T02410124  RH  048%=      5-min Rain = 0
KAM1 201118Z 21012KT 24/12 A2996 RMK A01 T02410124  RH  048%=      5-min Rain = 0
KAM1 201119Z 21011KT 24/12 A2996 RMK A01 T02410124  RH  048%=      5-min Rain = 0
KAM1 201120Z 21010KT 24/12 A2996 RMK A01 T02410124  RH  048%=      5-min Rain = 0
KAM1 201121Z 21012KT 24/12 A2996 RMK A01 T02400124  RH  048%=      5-min Rain = 0
KAM1 201122Z 21011KT 24/12 A2996 RMK A01 T02400124  RH  048%=      5-min Rain = 0
KAM1 201123Z 21012KT 24/12 A2996 RMK A01 T02400124  RH  048%=      5-min Rain = 0
KAM1 201124Z 21011KT 24/12 A2996 RMK A01 T02400124  RH  048%=      5-min Rain = 0
KAM1 201125Z 21012KT 24/12 A2996 RMK A01 T02400124  RH  048%=      5-min Rain = 0
KAM1 201126Z 21012KT 24/12 A2996 RMK A01 T02400124  RH  048%=      5-min Rain = 0
KAM1 201127Z 21012KT 24/12 A2996 RMK A01 T02400124  RH  048%=      5-min Rain = 0
KAM1 201128Z 22012KT 24/12 A2996 RMK A01 T02400124  RH  048%=      5-min Rain = 0
KAM1 201129Z 21012KT 24/12 A2996 RMK A01 T02400124  RH  048%=      5-min Rain = 0
KAM1 201130Z 21012KT 24/12 A2996 RMK A01 T02400124  RH  048%=      5-min Rain = 0
KAM1 201131Z 21011KT 24/13 A2996 RMK A01 T02400125  RH  049%=      5-min Rain = 0
KAM1 201132Z 21011KT 24/12 A2996 RMK A01 T02390124  RH  049%=      5-min Rain = 0
KAM1 201133Z 21010KT 24/13 A2996 RMK A01 T02380125  RH  049%=      5-min Rain = 0
KAM1 201134Z 21010KT 24/12 A2996 RMK A01 T02380124  RH  049%=      5-min Rain = 0
KAM1 201135Z 21013KT 24/12 A2996 RMK A01 T02380124  RH  049%=      5-min Rain = 0
KAM1 201136Z 21013KT 24/12 A2996 RMK A01 T02380124  RH  049%=      5-min Rain = 0
KAM1 201137Z 21012KT 24/13 A2996 RMK A01 T02380125  RH  049%=      5-min Rain = 0
KAM1 201138Z 21011KT 24/13 A2996 RMK A01 T02390125  RH  049%=      5-min Rain = 0
KAM1 201139Z 21010KT 24/13 A2996 RMK A01 T02380125  RH  049%=      5-min Rain = 0
KAM1 201140Z 21011KT 24/13 A2996 RMK A01 T02380125  RH  049%=      5-min Rain = 0
KAM1 201141Z 21011KT 24/13 A2996 RMK A01 T02370125  RH  049%=      5-min Rain = 0
KAM1 201142Z 21010KT 24/13 A2996 RMK A01 T02380125  RH  049%=      5-min Rain = 0
KAM1 201143Z 21010KT 24/13 A2996 RMK A01 T02370125  RH  049%=      5-min Rain = 0
KAM1 201144Z 21009KT 24/13 A2996 RMK A01 T02370125  RH  049%=      5-min Rain = 0
KAM1 201145Z 21012KT 24/13 A2996 RMK A01 T02360125  RH  050%=      5-min Rain = 0
KAM1 201146Z 21010KT 24/13 A2996 RMK A01 T02360125  RH  050%=      5-min Rain = 0
KAM1 201147Z 21011KT 24/13 A2996 RMK A01 T02360125  RH  050%=      5-min Rain = 0
KAM1 201148Z 21010KT 24/13 A2996 RMK A01 T02360125  RH  050%=      5-min Rain = 0
KAM1 201149Z 21010KT 24/13 A2996 RMK A01 T02360125  RH  050%=      5-min Rain = 0
KAM1 201150Z 21010KT 24/13 A2996 RMK A01 T02360125  RH  050%=      5-min Rain = 0
KAM1 201151Z 21010KT 24/13 A2996 RMK A01 T02360125  RH  050%=      5-min Rain = 0
KAM1 201152Z 21009KT 24/13 A2996 RMK A01 T02350125  RH  050%=      5-min Rain = 0
KAM1 201153Z 21010KT 24/13 A2996 RMK A01 T02350125  RH  050%=      5-min Rain = 0
KAM1 201154Z 21011KT 24/13 A2996 RMK A01 T02360126  RH  050%=      5-min Rain = 0
KAM1 201155Z 21009KT 24/13 A2996 RMK A01 T02360125  RH  050%=      5-min Rain = 0
KAM1 201156Z 21011KT 24/13 A2996 RMK A01 T02360125  RH  050%=      5-min Rain = 0
KAM1 201157Z 21009KT 24/13 A2996 RMK A01 T02360126  RH  050%=      5-min Rain = 0
KAM1 201158Z 21009KT 24/13 A2996 RMK A01 T02360125  RH  050%=      5-min Rain = 0
KAM1 201159Z 21009KT 24/13 A2996 RMK A01 T02360126  RH  050%=      5-min Rain = 0
KAM1 201200Z 21009KT 24/13 A2996 RMK A01 T02360126  RH  050%=      5-min Rain = 0
KAM1 201201Z 21009KT 24/13 A2996 RMK A01 T02350126  RH  050%=      5-min Rain = 0
KAM1 201202Z 20008KT 24/13 A2996 RMK A01 T02350126  RH  050%=      5-min Rain = 0
KAM1 201203Z 21008KT 24/13 A2996 RMK A01 T02350126  RH  050%=      5-min Rain = 0
KAM1 201204Z 21008KT 24/13 A2996 RMK A01 T02350126  RH  050%=      5-min Rain = 0
KAM1 201205Z 20009KT 23/13 A2996 RMK A01 T02340126  RH  051%=      5-min Rain = 0
KAM1 201206Z 20009KT 23/13 A2996 RMK A01 T02340126  RH  051%=      5-min Rain = 0
KAM1 201207Z 20009KT 23/13 A2996 RMK A01 T02340126  RH  051%=      5-min Rain = 0
KAM1 201208Z 21008KT 23/13 A2996 RMK A01 T02340126  RH  051%=      5-min Rain = 0
KAM1 201209Z 21011KT 23/13 A2996 RMK A01 T02340126  RH  051%=      5-min Rain = 0
KAM1 201210Z 21012KT 23/13 A2996 RMK A01 T02340126  RH  051%=      5-min Rain = 0
KAM1 201211Z 21011KT 24/13 A2996 RMK A01 T02350127  RH  050%=      5-min Rain = 0
KAM1 201212Z 21011KT 24/13 A2996 RMK A01 T02360127  RH  050%=      5-min Rain = 0
KAM1 201213Z 20012KT 24/13 A2996 RMK A01 T02360127  RH  050%=      5-min Rain = 0
KAM1 201214Z 21009KT 24/13 A2996 RMK A01 T02370127  RH  050%=      5-min Rain = 0
KAM1 201215Z 20009KT 24/13 A2996 RMK A01 T02360127  RH  050%=      5-min Rain = 0
KAM1 201216Z 20009KT 24/13 A2996 RMK A01 T02360127  RH  050%=      5-min Rain = 0
KAM1 201217Z 20010KT 24/13 A2996 RMK A01 T02360127  RH  050%=      5-min Rain = 0
KAM1 201218Z 20009KT 24/13 A2996 RMK A01 T02360127  RH  051%=      5-min Rain = 0
KAM1 201219Z 20009KT 24/13 A2996 RMK A01 T02350127  RH  051%=      5-min Rain = 0
KAM1 201220Z 20009KT 24/13 A2996 RMK A01 T02350127  RH  051%=      5-min Rain = 0
KAM1 201221Z 20007KT 24/13 A2996 RMK A01 T02360127  RH  051%=      5-min Rain = 0
KAM1 201222Z 20007KT 24/13 A2996 RMK A01 T02360128  RH  051%=      5-min Rain = 0
KAM1 201223Z 20009KT 24/13 A2996 RMK A01 T02350128  RH  051%=      5-min Rain = 0
KAM1 201224Z 20010KT 24/13 A2996 RMK A01 T02350128  RH  051%=      5-min Rain = 0
KAM1 201225Z 19008KT 24/13 A2996 RMK A01 T02350128  RH  051%=      5-min Rain = 0
KAM1 201226Z 20007KT 24/13 A2996 RMK A01 T02350128  RH  051%=      5-min Rain = 0
KAM1 201227Z 19009KT 24/13 A2996 RMK A01 T02350128  RH  051%=      5-min Rain = 0
KAM1 201228Z 20008KT 24/13 A2996 RMK A01 T02350128  RH  051%=      5-min Rain = 0
KAM1 201229Z 19008KT 24/13 A2996 RMK A01 T02350128  RH  051%=      5-min Rain = 0
KAM1 201230Z 20007KT 24/13 A2996 RMK A01 T02360128  RH  051%=      5-min Rain = 0
KAM1 201231Z 20009KT 24/13 A2996 RMK A01 T02360129  RH  051%=      5-min Rain = 0
KAM1 201232Z 20009KT 24/13 A2996 RMK A01 T02360129  RH  051%=      5-min Rain = 0
KAM1 201233Z 20009KT 24/13 A2997 RMK A01 T02360129  RH  051%=      5-min Rain = 0
KAM1 201234Z 20010KT 24/13 A2996 RMK A01 T02370129  RH  051%=      5-min Rain = 0
KAM1 201235Z 20008KT 24/13 A2997 RMK A01 T02370129  RH  051%=      5-min Rain = 0
KAM1 201236Z 20011KT 24/13 A2997 RMK A01 T02380129  RH  051%=      5-min Rain = 0
KAM1 201237Z 20008KT 24/13 A2997 RMK A01 T02380129  RH  050%=      5-min Rain = 0
KAM1 201238Z 19009KT 24/13 A2997 RMK A01 T02390130  RH  050%=      5-min Rain = 0
KAM1 201239Z 20008KT 24/13 A2997 RMK A01 T02390129  RH  050%=      5-min Rain = 0
KAM1 201240Z 20008KT 24/13 A2997 RMK A01 T02390130  RH  050%=      5-min Rain = 0
KAM1 201241Z 20008KT 24/13 A2997 RMK A01 T02390130  RH  050%=      5-min Rain = 0
KAM1 201242Z 20010KT 24/13 A2997 RMK A01 T02400130  RH  050%=      5-min Rain = 0
KAM1 201243Z 20009KT 24/13 A2997 RMK A01 T02400130  RH  050%=      5-min Rain = 0
KAM1 201244Z 20009KT 24/13 A2997 RMK A01 T02410130  RH  050%=      5-min Rain = 0
KAM1 201245Z 20008KT 24/13 A2997 RMK A01 T02410130  RH  050%=      5-min Rain = 0
KAM1 201246Z 20008KT 24/13 A2997 RMK A01 T02410130  RH  050%=      5-min Rain = 0
KAM1 201247Z 20006KT 24/13 A2997 RMK A01 T02410131  RH  050%=      5-min Rain = 0
KAM1 201248Z 20007KT 24/13 A2997 RMK A01 T02410131  RH  050%=      5-min Rain = 0
KAM1 201249Z 20006KT 24/13 A2997 RMK A01 T02410132  RH  050%=      5-min Rain = 0
KAM1 201250Z 20007KT 24/13 A2997 RMK A01 T02410132  RH  050%=      5-min Rain = 0
KAM1 201251Z 19008KT 24/13 A2997 RMK A01 T02420131  RH  050%=      5-min Rain = 0
KAM1 201252Z 19008KT 24/13 A2997 RMK A01 T02420131  RH  050%=      5-min Rain = 0
KAM1 201253Z 19007KT 24/13 A2997 RMK A01 T02420131  RH  050%=      5-min Rain = 0
KAM1 201254Z 19008KT 24/13 A2997 RMK A01 T02430132  RH  050%=      5-min Rain = 0
KAM1 201255Z 19009KT 24/13 A2997 RMK A01 T02430132  RH  050%=      5-min Rain = 0
KAM1 201256Z 18011KT 24/13 A2997 RMK A01 T02430132  RH  050%=      5-min Rain = 0
KAM1 201257Z 19009KT 24/13 A2997 RMK A01 T02440132  RH  049%=      5-min Rain = 0
KAM1 201258Z 19006KT 24/13 A2997 RMK A01 T02440133  RH  050%=      5-min Rain = 0
KAM1 201259Z 19008KT 25/13 A2997 RMK A01 T02450134  RH  050%=      5-min Rain = 0
KAM1 201300Z 19010KT 25/13 A2997 RMK A01 T02450133  RH  050%=      5-min Rain = 0
KAM1 201301Z 21009KT 25/13 A2997 RMK A01 T02460133  RH  049%=      5-min Rain = 0
KAM1 201302Z 20008KT 25/13 A2997 RMK A01 T02470133  RH  049%=      5-min Rain = 0
KAM1 201303Z 20008KT 25/13 A2997 RMK A01 T02470133  RH  049%=      5-min Rain = 0
KAM1 201304Z 20011KT 25/13 A2997 RMK A01 T02470133  RH  049%=      5-min Rain = 0
KAM1 201305Z 19007KT 25/13 A2997 RMK A01 T02470133  RH  049%=      5-min Rain = 0
KAM1 201306Z 19008KT 25/13 A2997 RMK A01 T02480134  RH  049%=      5-min Rain = 0
KAM1 201307Z 20009KT 25/13 A2997 RMK A01 T02480133  RH  049%=      5-min Rain = 0
KAM1 201308Z 20009KT 25/13 A2997 RMK A01 T02480133  RH  049%=      5-min Rain = 0
KAM1 201309Z 20007KT 25/13 A2997 RMK A01 T02480133  RH  049%=      5-min Rain = 0
KAM1 201310Z 19007KT 25/14 A2997 RMK A01 T02490135  RH  049%=      5-min Rain = 0
KAM1 201311Z 21010KT 25/14 A2997 RMK A01 T02500135  RH  049%=      5-min Rain = 0
KAM1 201312Z 19011KT 25/13 A2997 RMK A01 T02500133  RH  048%=      5-min Rain = 0
KAM1 201313Z 20010KT 25/13 A2997 RMK A01 T02500134  RH  048%=      5-min Rain = 0
KAM1 201314Z 20010KT 25/13 A2997 RMK A01 T02500133  RH  048%=      5-min Rain = 0
KAM1 201315Z 19010KT 25/13 A2997 RMK A01 T02500134  RH  048%=      5-min Rain = 0
KAM1 201316Z 20009KT 25/13 A2997 RMK A01 T02500134  RH  048%=      5-min Rain = 0
KAM1 201317Z 20008KT 25/14 A2997 RMK A01 T02510135  RH  048%=      5-min Rain = 0
KAM1 201318Z 20009KT 25/14 A2997 RMK A01 T02510135  RH  048%=      5-min Rain = 0
KAM1 201319Z 20009KT 25/14 A2997 RMK A01 T02520136  RH  049%=      5-min Rain = 0
KAM1 201320Z 20008KT 25/14 A2997 RMK A01 T02520135  RH  048%=      5-min Rain = 0
KAM1 201321Z 20010KT 25/14 A2997 RMK A01 T02530136  RH  048%=      5-min Rain = 0
KAM1 201322Z 20010KT 25/14 A2997 RMK A01 T02530135  RH  048%=      5-min Rain = 0
KAM1 201323Z 19011KT 25/14 A2997 RMK A01 T02530135  RH  048%=      5-min Rain = 0
KAM1 201324Z 19010KT 25/13 A2997 RMK A01 T02530134  RH  048%=      5-min Rain = 0
KAM1 201325Z 20010KT 25/14 A2997 RMK A01 T02530135  RH  048%=      5-min Rain = 0
KAM1 201326Z 20008KT 25/14 A2998 RMK A01 T02530135  RH  048%=      5-min Rain = 0
KAM1 201327Z 21010KT 25/14 A2998 RMK A01 T02530135  RH  048%=      5-min Rain = 0
KAM1 201328Z 20009KT 25/14 A2998 RMK A01 T02540135  RH  048%=      5-min Rain = 0
KAM1 201329Z 20009KT 26/14 A2998 RMK A01 T02550137  RH  048%=      5-min Rain = 0
KAM1 201330Z 20010KT 26/14 A2998 RMK A01 T02550136  RH  047%=      5-min Rain = 0
KAM1 201331Z 19008KT 26/14 A2998 RMK A01 T02560136  RH  048%=      5-min Rain = 0
KAM1 201332Z 19009KT 26/14 A2998 RMK A01 T02560136  RH  047%=      5-min Rain = 0
KAM1 201333Z 19010KT 26/14 A2998 RMK A01 T02570136  RH  047%=      5-min Rain = 0
KAM1 201334Z 20008KT 26/14 A2998 RMK A01 T02580137  RH  047%=      5-min Rain = 0
KAM1 201335Z 19012KT 26/14 A2998 RMK A01 T02580137  RH  047%=      5-min Rain = 0
KAM1 201336Z 19011KT 26/14 A2998 RMK A01 T02580136  RH  047%=      5-min Rain = 0
KAM1 201337Z 19010KT 26/14 A2998 RMK A01 T02590136  RH  047%=      5-min Rain = 0
KAM1 201338Z 21009KT 26/14 A2998 RMK A01 T02590137  RH  047%=      5-min Rain = 0
KAM1 201339Z 20009KT 26/14 A2998 RMK A01 T02600137  RH  047%=      5-min Rain = 0
KAM1 201340Z 20008KT 26/14 A2998 RMK A01 T02600137  RH  047%=      5-min Rain = 0
KAM1 201341Z 20010KT 26/14 A2997 RMK A01 T02610138  RH  047%=      5-min Rain = 0
KAM1 201342Z 19009KT 26/14 A2997 RMK A01 T02620138  RH  046%=      5-min Rain = 0
KAM1 201343Z 20010KT 26/14 A2997 RMK A01 T02620137  RH  046%=      5-min Rain = 0
KAM1 201344Z 20011KT 26/14 A2997 RMK A01 T02620137  RH  046%=      5-min Rain = 0
KAM1 201345Z 19012KT 26/14 A2997 RMK A01 T02620137  RH  046%=      5-min Rain = 0
KAM1 201346Z 19012KT 26/14 A2997 RMK A01 T02630137  RH  046%=      5-min Rain = 0
KAM1 201347Z 20010KT 26/14 A2997 RMK A01 T02630137  RH  046%=      5-min Rain = 0
KAM1 201348Z 19012KT 26/14 A2997 RMK A01 T02640138  RH  046%=      5-min Rain = 0
KAM1 201349Z 20009KT 26/14 A2997 RMK A01 T02640138  RH  046%=      5-min Rain = 0
KAM1 201350Z 19009KT 27/14 A2997 RMK A01 T02660140  RH  046%=      5-min Rain = 0
KAM1 201351Z 20011KT 27/14 A2997 RMK A01 T02670139  RH  045%=      5-min Rain = 0
KAM1 201352Z 18011KT 27/14 A2997 RMK A01 T02670137  RH  045%=      5-min Rain = 0
KAM1 201353Z 19012KT 27/14 A2997 RMK A01 T02670139  RH  045%=      5-min Rain = 0
KAM1 201354Z 19012KT 27/14 A2997 RMK A01 T02670138  RH  045%=      5-min Rain = 0
KAM1 201355Z 19010KT 27/14 A2997 RMK A01 T02670138  RH  045%=      5-min Rain = 0
KAM1 201356Z 19013KT 27/14 A2997 RMK A01 T02670138  RH  045%=      5-min Rain = 0
KAM1 201357Z 19012KT 27/14 A2997 RMK A01 T02680138  RH  045%=      5-min Rain = 0
KAM1 201358Z 19014KT 27/14 A2997 RMK A01 T02680138  RH  045%=      5-min Rain = 0
KAM1 201359Z 19012KT 27/14 A2997 RMK A01 T02680137  RH  044%=      5-min Rain = 0
KAM1 201400Z 19011G16KT 27/14 A2997 RMK A01 T02690139  RH  045%=      5-min Rain = 0
KAM1 201401Z 20012KT 27/14 A2997 RMK A01 T02700139  RH  044%=      5-min Rain = 0
KAM1 201402Z 21012KT 27/14 A2997 RMK A01 T02710139  RH  044%=      5-min Rain = 0
KAM1 201403Z 20010KT 27/14 A2997 RMK A01 T02720140  RH  044%=      5-min Rain = 0
KAM1 201404Z 20014KT 27/14 A2997 RMK A01 T02730140  RH  044%=      5-min Rain = 0
KAM1 201405Z 19013KT 27/14 A2997 RMK A01 T02740139  RH  043%=      5-min Rain = 0
KAM1 201406Z 19014KT 27/14 A2997 RMK A01 T02740139  RH  043%=      5-min Rain = 0
KAM1 201407Z 19015KT 27/14 A2997 RMK A01 T02740138  RH  043%=      5-min Rain = 0
KAM1 201408Z 20016KT 27/14 A2997 RMK A01 T02740138  RH  043%=      5-min Rain = 0
KAM1 201409Z 20012KT 27/14 A2997 RMK A01 T02740138  RH  043%=      5-min Rain = 0
KAM1 201410Z 21010KT 27/14 A2997 RMK A01 T02740139  RH  044%=      5-min Rain = 0
KAM1 201411Z 21009G14KT 28/14 A2997 RMK A01 T02750141  RH  044%=      5-min Rain = 0
KAM1 201412Z 21011G16KT 28/14 A2997 RMK A01 T02780141  RH  043%=      5-min Rain = 0
KAM1 201413Z 21014KT 28/14 A2997 RMK A01 T02790140  RH  042%=      5-min Rain = 0
KAM1 201414Z 21012G17KT 28/14 A2997 RMK A01 T02790140  RH  043%=      5-min Rain = 0
KAM1 201415Z 19012KT 28/14 A2997 RMK A01 T02790141  RH  043%=      5-min Rain = 0
KAM1 201416Z 22013KT 28/14 A2997 RMK A01 T02790141  RH  043%=      5-min Rain = 0
KAM1 201417Z 21011KT 28/14 A2997 RMK A01 T02800141  RH  043%=      5-min Rain = 0
KAM1 201418Z 21012KT 28/14 A2997 RMK A01 T02800140  RH  042%=      5-min Rain = 0
KAM1 201419Z 22013KT 28/14 A2997 RMK A01 T02800140  RH  042%=      5-min Rain = 0
KAM1 201420Z 21011KT 28/14 A2997 RMK A01 T02800141  RH  042%=      5-min Rain = 0
KAM1 201421Z 21012KT 28/14 A2997 RMK A01 T02810143  RH  043%=      5-min Rain = 0
KAM1 201422Z 20012KT 28/14 A2998 RMK A01 T02830141  RH  042%=      5-min Rain = 0
KAM1 201423Z 22013KT 28/14 A2998 RMK A01 T02840141  RH  042%=      5-min Rain = 0
KAM1 201424Z 20012KT 28/14 A2998 RMK A01 T02830141  RH  042%=      5-min Rain = 0
KAM1 201425Z 20012KT 28/14 A2998 RMK A01 T02830140  RH  042%=      5-min Rain = 0
KAM1 201426Z 20014KT 28/14 A2997 RMK A01 T02830140  RH  042%=      5-min Rain = 0
KAM1 201427Z 20015KT 28/14 A2997 RMK A01 T02820139  RH  041%=      5-min Rain = 0
KAM1 201428Z 21017G22KT 28/14 A2997 RMK A01 T02810140  RH  042%=      5-min Rain = 0
KAM1 201429Z 21015KT 28/14 A2998 RMK A01 T02810139  RH  042%=      5-min Rain = 0
KAM1 201430Z 21014G19KT 28/14 A2997 RMK A01 T02820139  RH  042%=      5-min Rain = 0
KAM1 201431Z 20014KT 28/14 A2997 RMK A01 T02820140  RH  042%=      5-min Rain = 0
KAM1 201432Z 21015KT 28/14 A2998 RMK A01 T02830140  RH  042%=      5-min Rain = 0
KAM1 201433Z 22017KT 28/14 A2998 RMK A01 T02830139  RH  041%=      5-min Rain = 0
KAM1 201434Z 22016KT 28/14 A2998 RMK A01 T02830139  RH  041%=      5-min Rain = 0
KAM1 201435Z 21014KT 28/14 A2998 RMK A01 T02830139  RH  041%=      5-min Rain = 0
KAM1 201436Z 21014KT 28/14 A2998 RMK A01 T02830138  RH  041%=      5-min Rain = 0
KAM1 201437Z 22016KT 28/14 A2998 RMK A01 T02830139  RH  041%=      5-min Rain = 0
KAM1 201438Z 21015KT 28/14 A2998 RMK A01 T02840139  RH  041%=      5-min Rain = 0
KAM1 201439Z 21015KT 28/14 A2998 RMK A01 T02840139  RH  041%=      5-min Rain = 0
KAM1 201440Z 21013G18KT 28/14 A2998 RMK A01 T02830138  RH  041%=      5-min Rain = 0
KAM1 201441Z 20014G19KT 28/14 A2998 RMK A01 T02840140  RH  041%=      5-min Rain = 0
KAM1 201442Z 20014KT 29/14 A2998 RMK A01 T02850139  RH  041%=      5-min Rain = 0
KAM1 201443Z 21014KT 29/14 A2998 RMK A01 T02850139  RH  041%=      5-min Rain = 0
KAM1 201444Z 21012KT 29/14 A2998 RMK A01 T02860141  RH  041%=      5-min Rain = 0
KAM1 201445Z 22012KT 29/14 A2998 RMK A01 T02870140  RH  041%=      5-min Rain = 0
KAM1 201446Z 21013KT 29/14 A2998 RMK A01 T02870141  RH  041%=      5-min Rain = 0
KAM1 201447Z 21010KT 29/14 A2998 RMK A01 T02880140  RH  040%=      5-min Rain = 0
KAM1 201448Z 21012KT 29/14 A2998 RMK A01 T02890141  RH  040%=      5-min Rain = 0
KAM1 201449Z 22012KT 29/14 A2998 RMK A01 T02890142  RH  040%=      5-min Rain = 0
KAM1 201450Z 21012KT 29/14 A2997 RMK A01 T02900142  RH  040%=      5-min Rain = 0
KAM1 201451Z 22012KT 29/14 A2997 RMK A01 T02920142  RH  040%=      5-min Rain = 0
KAM1 201452Z 22013KT 29/14 A2997 RMK A01 T02920141  RH  040%=      5-min Rain = 0
KAM1 201453Z 22013KT 29/14 A2997 RMK A01 T02920141  RH  040%=      5-min Rain = 0
KAM1 201454Z 22012KT 29/14 A2997 RMK A01 T02920141  RH  040%=      5-min Rain = 0
KAM1 201455Z 21011KT 29/14 A2997 RMK A01 T02910142  RH  040%=      5-min Rain = 0
KAM1 201456Z 22012KT 29/14 A2997 RMK A01 T02930144  RH  040%=      5-min Rain = 0
KAM1 201457Z 21010KT 30/14 A2997 RMK A01 T02950142  RH  039%=      5-min Rain = 0
KAM1 201458Z 21009KT 29/14 A2997 RMK A01 T02940143  RH  040%=      5-min Rain = 0
KAM1 201459Z 20012KT 30/14 A2997 RMK A01 T02950143  RH  040%=      5-min Rain = 0
KAM1 201500Z 20011KT 30/14 A2997 RMK A01 T02960142  RH  039%=      5-min Rain = 0
KAM1 201501Z 20013KT 30/14 A2997 RMK A01 T02980144  RH  039%=      5-min Rain = 0
KAM1 201502Z 21013KT 30/14 A2997 RMK A01 T02990142  RH  038%=      5-min Rain = 0
KAM1 201503Z 22013KT 30/14 A2997 RMK A01 T02980142  RH  039%=      5-min Rain = 0
KAM1 201504Z 22012KT 30/14 A2997 RMK A01 T02970142  RH  039%=      5-min Rain = 0
KAM1 201505Z 23012KT 30/14 A2997 RMK A01 T02970142  RH  039%=      5-min Rain = 0
KAM1 201506Z 20012KT 30/14 A2997 RMK A01 T02980144  RH  039%=      5-min Rain = 0
KAM1 201507Z 20014KT 30/14 A2996 RMK A01 T02990143  RH  039%=      5-min Rain = 0
KAM1 201508Z 21012KT 30/14 A2996 RMK A01 T02990142  RH  038%=      5-min Rain = 0
KAM1 201509Z 20013KT 30/14 A2996 RMK A01 T02990143  RH  039%=      5-min Rain = 0
KAM1 201510Z 20013KT 30/14 A2996 RMK A01 T03000142  RH  038%=      5-min Rain = 0
KAM1 201511Z 21010G15KT 30/14 A2996 RMK A01 T03000144  RH  039%=      5-min Rain = 0
KAM1 201512Z 20011G17KT 30/15 A2996 RMK A01 T03030147  RH  039%=      5-min Rain = 0
KAM1 201513Z 20014KT 31/15 A2996 RMK A01 T03060145  RH  038%=      5-min Rain = 0
KAM1 201514Z 20014KT 31/14 A2996 RMK A01 T03050142  RH  037%=      5-min Rain = 0
KAM1 201515Z 19014KT 30/14 A2996 RMK A01 T03020143  RH  038%=      5-min Rain = 0
KAM1 201516Z 20012KT 30/14 A2996 RMK A01 T03010142  RH  038%=      5-min Rain = 0
KAM1 201517Z 21011KT 30/14 A2996 RMK A01 T03010143  RH  038%=      5-min Rain = 0
KAM1 201518Z 19013KT 30/14 A2996 RMK A01 T03020143  RH  038%=      5-min Rain = 0
KAM1 201519Z 20014KT 30/14 A2996 RMK A01 T03030143  RH  038%=      5-min Rain = 0
KAM1 201520Z 19015KT 30/14 A2996 RMK A01 T03020143  RH  038%=      5-min Rain = 0
KAM1 201521Z 19015KT 30/14 A2996 RMK A01 T03020142  RH  038%=      5-min Rain = 0
KAM1 201522Z 20014G19KT 30/14 A2996 RMK A01 T03020143  RH  038%=      5-min Rain = 0
KAM1 201523Z 20015KT 30/14 A2996 RMK A01 T03030143  RH  038%=      5-min Rain = 0
KAM1 201524Z 20015KT 30/14 A2996 RMK A01 T03040143  RH  038%=      5-min Rain = 0
KAM1 201525Z 20014KT 30/14 A2996 RMK A01 T03030143  RH  038%=      5-min Rain = 0
KAM1 201526Z 20015KT 30/14 A2996 RMK A01 T03040142  RH  037%=      5-min Rain = 0
KAM1 201527Z 19015KT 30/14 A2996 RMK A01 T03030142  RH  038%=      5-min Rain = 0
KAM1 201528Z 19014G19KT 30/14 A2996 RMK A01 T03020142  RH  038%=      5-min Rain = 0
KAM1 201529Z 21013KT 30/14 A2996 RMK A01 T03040143  RH  038%=      5-min Rain = 0
KAM1 201530Z 20016KT 31/14 A2996 RMK A01 T03050144  RH  038%=      5-min Rain = 0
KAM1 201531Z 20015KT 31/14 A2996 RMK A01 T03060143  RH  037%=      5-min Rain = 0
KAM1 201532Z 21016KT 31/14 A2996 RMK A01 T03050143  RH  037%=      5-min Rain = 0
KAM1 201533Z 19014KT 31/14 A2996 RMK A01 T03050143  RH  037%=      5-min Rain = 0
KAM1 201534Z 19015G20KT 31/14 A2996 RMK A01 T03050143  RH  037%=      5-min Rain = 0
KAM1 201535Z 19016KT 31/14 A2996 RMK A01 T03060144  RH  037%=      5-min Rain = 0
KAM1 201536Z 19016KT 31/14 A2996 RMK A01 T03080143  RH  037%=      5-min Rain = 0
KAM1 201537Z 20017KT 31/14 A2996 RMK A01 T03070142  RH  037%=      5-min Rain = 0
KAM1 201538Z 20013KT 31/14 A2996 RMK A01 T03070144  RH  037%=      5-min Rain = 0
KAM1 201539Z 19017KT 31/15 A2996 RMK A01 T03080145  RH  037%=      5-min Rain = 0
KAM1 201540Z 20014KT 31/14 A2996 RMK A01 T03090143  RH  037%=      5-min Rain = 0
KAM1 201541Z 19013KT 31/15 A2996 RMK A01 T03090145  RH  037%=      5-min Rain = 0
KAM1 201542Z 19015G20KT 31/14 A2995 RMK A01 T03120143  RH  036%=      5-min Rain = 0
KAM1 201543Z 19018KT 31/14 A2995 RMK A01 T03130143  RH  036%=      5-min Rain = 0
KAM1 201544Z 19014KT 31/14 A2995 RMK A01 T03110142  RH  036%=      5-min Rain = 0
KAM1 201545Z 20013KT 31/15 A2996 RMK A01 T03110145  RH  036%=      5-min Rain = 0
KAM1 201546Z 20012KT 31/14 A2995 RMK A01 T03130142  RH  036%=      5-min Rain = 0
KAM1 201547Z 20015KT 31/14 A2995 RMK A01 T03110144  RH  036%=      5-min Rain = 0
KAM1 201548Z 21013KT 31/15 A2995 RMK A01 T03110145  RH  036%=      5-min Rain = 0
KAM1 201549Z 20016KT 31/15 A2995 RMK A01 T03130145  RH  036%=      5-min Rain = 0
KAM1 201550Z 18016KT 31/14 A2995 RMK A01 T03140144  RH  036%=      5-min Rain = 0
KAM1 201551Z 19016KT 31/14 A2995 RMK A01 T03140143  RH  035%=      5-min Rain = 0
KAM1 201552Z 19014KT 31/14 A2995 RMK A01 T03120143  RH  036%=      5-min Rain = 0
KAM1 201553Z 21013KT 31/14 A2995 RMK A01 T03120144  RH  036%=      5-min Rain = 0
KAM1 201554Z 21017KT 31/14 A2995 RMK A01 T03130144  RH  036%=      5-min Rain = 0
KAM1 201555Z 20013KT 31/14 A2995 RMK A01 T03140144  RH  036%=      5-min Rain = 0
KAM1 201556Z 18010KT 32/15 A2995 RMK A01 T03160147  RH  036%=      5-min Rain = 0
KAM1 201557Z 19013KT 32/15 A2995 RMK A01 T03210150  RH  036%=      5-min Rain = 0
KAM1 201558Z 18014KT 32/15 A2995 RMK A01 T03230147  RH  034%=      5-min Rain = 0
KAM1 201559Z 18016KT 32/15 A2995 RMK A01 T03220145  RH  034%=      5-min Rain = 0
KAM1 201600Z 20015KT 32/15 A2995 RMK A01 T03210146  RH  035%=      5-min Rain = 0
KAM1 201601Z 21013KT 32/15 A2995 RMK A01 T03210145  RH  035%=      5-min Rain = 0
KAM1 201602Z 20011KT 32/15 A2995 RMK A01 T03200147  RH  035%=      5-min Rain = 0
KAM1 201603Z 19014KT 32/15 A2995 RMK A01 T03220147  RH  035%=      5-min Rain = 0
KAM1 201604Z 18015KT 32/15 A2995 RMK A01 T03220145  RH  034%=      5-min Rain = 0
KAM1 201605Z 18014KT 32/15 A2995 RMK A01 T03200145  RH  035%=      5-min Rain = 0
KAM1 201606Z 20013KT 32/15 A2995 RMK A01 T03200146  RH  035%=      5-min Rain = 0
KAM1 201607Z 19013KT 32/15 A2995 RMK A01 T03190146  RH  035%=      5-min Rain = 0
KAM1 201608Z 20014KT 32/15 A2995 RMK A01 T03190146  RH  035%=      5-min Rain = 0
KAM1 201609Z 20016KT 32/15 A2995 RMK A01 T03200146  RH  035%=      5-min Rain = 0
KAM1 201610Z 20014KT 32/14 A2995 RMK A01 T03190144  RH  035%=      5-min Rain = 0
KAM1 201611Z 18013KT 32/15 A2995 RMK A01 T03190145  RH  035%=      5-min Rain = 0
KAM1 201612Z 19013KT 32/15 A2995 RMK A01 T03190145  RH  035%=      5-min Rain = 0
KAM1 201613Z 20014KT 32/15 A2995 RMK A01 T03200145  RH  035%=      5-min Rain = 0
KAM1 201614Z 18012G18KT 32/15 A2995 RMK A01 T03210146  RH  035%=      5-min Rain = 0
KAM1 201615Z 19013KT 32/15 A2995 RMK A01 T03210145  RH  034%=      5-min Rain = 0
KAM1 201616Z 19014KT 32/15 A2995 RMK A01 T03210146  RH  035%=      5-min Rain = 0
KAM1 201617Z 20011KT 32/15 A2995 RMK A01 T03230147  RH  035%=      5-min Rain = 0
KAM1 201618Z 19010KT 33/15 A2995 RMK A01 T03250149  RH  035%=      5-min Rain = 0
KAM1 201619Z 20011KT 33/15 A2995 RMK A01 T03270146  RH  034%=      5-min Rain = 0
KAM1 201620Z 20012G18KT 33/15 A2995 RMK A01 T03270149  RH  034%=      5-min Rain = 0
KAM1 201621Z 18013KT 33/15 A2996 RMK A01 T03290147  RH  033%=      5-min Rain = 0
KAM1 201622Z 20012KT 33/15 A2995 RMK A01 T03290148  RH  034%=      5-min Rain = 0
KAM1 201623Z 20012KT 33/15 A2995 RMK A01 T03290145  RH  033%=      5-min Rain = 0
KAM1 201624Z 20014KT 33/15 A2995 RMK A01 T03270146  RH  033%=      5-min Rain = 0
KAM1 201625Z 20014KT 33/15 A2996 RMK A01 T03270146  RH  034%=      5-min Rain = 0
KAM1 201626Z 21012KT 33/15 A2995 RMK A01 T03280146  RH  033%=      5-min Rain = 0
KAM1 201627Z 20013KT 33/15 A2995 RMK A01 T03290146  RH  033%=      5-min Rain = 0
KAM1 201628Z 21012KT 33/15 A2996 RMK A01 T03300146  RH  033%=      5-min Rain = 0
KAM1 201629Z 21012KT 33/15 A2996 RMK A01 T03300147  RH  033%=      5-min Rain = 0
KAM1 201630Z 20013KT 33/15 A2996 RMK A01 T03310147  RH  033%=      5-min Rain = 0
KAM1 201631Z 21013KT 33/15 A2996 RMK A01 T03330146  RH  032%=      5-min Rain = 0
KAM1 201632Z 20011KT 33/14 A2996 RMK A01 T03310144  RH  032%=      5-min Rain = 0
KAM1 201633Z 20011KT 33/15 A2995 RMK A01 T03290146  RH  033%=      5-min Rain = 0
KAM1 201634Z 20014KT 33/15 A2995 RMK A01 T03310145  RH  033%=      5-min Rain = 0
KAM1 201635Z 20012KT 33/15 A2995 RMK A01 T03310146  RH  033%=      5-min Rain = 0
KAM1 201636Z 19012G17KT 33/15 A2995 RMK A01 T03320149  RH  033%=      5-min Rain = 0
KAM1 201637Z 19014KT 34/15 A2995 RMK A01 T03360148  RH  032%=      5-min Rain = 0
KAM1 201638Z 20014KT 33/14 A2995 RMK A01 T03340144  RH  032%=      5-min Rain = 0
KAM1 201639Z 18013KT 33/15 A2995 RMK A01 T03310146  RH  033%=      5-min Rain = 0
KAM1 201640Z 20014G20KT 33/15 A2995 RMK A01 T03320146  RH  033%=      5-min Rain = 0
KAM1 201641Z 21013KT 33/15 A2995 RMK A01 T03330146  RH  032%=      5-min Rain = 0
KAM1 201642Z 20012KT 33/15 A2995 RMK A01 T03330146  RH  032%=      5-min Rain = 0
KAM1 201643Z 19014KT 33/15 A2995 RMK A01 T03330146  RH  032%=      5-min Rain = 0
KAM1 201644Z 20012KT 33/15 A2995 RMK A01 T03340146  RH  032%=      5-min Rain = 0
KAM1 201645Z 21014G19KT 34/15 A2995 RMK A01 T03350147  RH  032%=      5-min Rain = 0
KAM1 201646Z 21014KT 33/14 A2995 RMK A01 T03340144  RH  032%=      5-min Rain = 0
KAM1 201647Z 20012KT 33/15 A2995 RMK A01 T03310145  RH  033%=      5-min Rain = 0
KAM1 201648Z 19011KT 33/15 A2995 RMK A01 T03300145  RH  033%=      5-min Rain = 0
KAM1 201649Z 20010KT 33/15 A2995 RMK A01 T03310145  RH  033%=      5-min Rain = 0
KAM1 201650Z 19011G16KT 33/15 A2995 RMK A01 T03340149  RH  033%=      5-min Rain = 0
KAM1 201651Z 19013KT 34/15 A2995 RMK A01 T03370146  RH  032%=      5-min Rain = 0
KAM1 201652Z 21010KT 33/15 A2995 RMK A01 T03340147  RH  032%=      5-min Rain = 0
KAM1 201653Z 20012KT 33/15 A2995 RMK A01 T03340149  RH  033%=      5-min Rain = 0
KAM1 201654Z 21014KT 34/15 A2995 RMK A01 T03380147  RH  032%=      5-min Rain = 0
KAM1 201655Z 21012KT 34/15 A2995 RMK A01 T03380147  RH  032%=      5-min Rain = 0
KAM1 201656Z 18012KT 34/15 A2995 RMK A01 T03390149  RH  032%=      5-min Rain = 0
KAM1 201657Z 18009KT 34/15 A2995 RMK A01 T03400146  RH  031%=      5-min Rain = 0
KAM1 201658Z 20014KT 34/15 A2995 RMK A01 T03380146  RH  031%=      5-min Rain = 0
KAM1 201659Z 20013KT 34/15 A2995 RMK A01 T03380146  RH  032%=      5-min Rain = 0
KAM1 201700Z 20012KT 34/15 A2995 RMK A01 T03380146  RH  031%=      5-min Rain = 0
KAM1 201701Z 20010KT 34/15 A2995 RMK A01 T03390146  RH  031%=      5-min Rain = 0
KAM1 201702Z 20011G16KT 34/15 A2995 RMK A01 T03380146  RH  032%=      5-min Rain = 0
KAM1 201703Z 20015KT 34/15 A2995 RMK A01 T03400146  RH  031%=      5-min Rain = 0
KAM1 201704Z 20013KT 34/15 A2995 RMK A01 T03410146  RH  031%=      5-min Rain = 0
KAM1 201705Z 21011KT 34/15 A2995 RMK A01 T03390145  RH  031%=      5-min Rain = 0
KAM1 201706Z 21011KT 34/15 A2995 RMK A01 T03380146  RH  032%=      5-min Rain = 0
KAM1 201707Z 22012KT 34/15 A2995 RMK A01 T03380148  RH  032%=      5-min Rain = 0
KAM1 201708Z 22011KT 34/15 A2995 RMK A01 T03400149  RH  032%=      5-min Rain = 0
KAM1 201709Z 21009KT 34/15 A2995 RMK A01 T03440151  RH  032%=      5-min Rain = 0
KAM1 201710Z 20009G16KT 35/15 A2995 RMK A01 T03470151  RH  031%=      5-min Rain = 0
KAM1 201711Z 20014KT 35/15 A2995 RMK A01 T03480148  RH  030%=      5-min Rain = 0
KAM1 201712Z 20009G14KT 35/15 A2995 RMK A01 T03470147  RH  030%=      5-min Rain = 0
KAM1 201713Z 21013KT 35/15 A2995 RMK A01 T03480147  RH  030%=      5-min Rain = 0
KAM1 201714Z 21010KT 34/15 A2995 RMK A01 T03440147  RH  031%=      5-min Rain = 0
KAM1 201715Z 22011KT 34/15 A2995 RMK A01 T03430150  RH  031%=      5-min Rain = 0
KAM1 201716Z 20011KT 35/15 A2995 RMK A01 T03450149  RH  031%=      5-min Rain = 0
KAM1 201717Z 20017KT 35/15 A2995 RMK A01 T03450148  RH  031%=      5-min Rain = 0
KAM1 201718Z 20015KT 34/15 A2995 RMK A01 T03440148  RH  031%=      5-min Rain = 0
KAM1 201719Z 19011KT 34/15 A2995 RMK A01 T03440149  RH  031%=      5-min Rain = 0
KAM1 201720Z 18011KT 34/15 A2995 RMK A01 T03440149  RH  031%=      5-min Rain = 0
KAM1 201721Z 20011KT 34/15 A2995 RMK A01 T03440149  RH  031%=      5-min Rain = 0
KAM1 201722Z 20012KT 34/15 A2995 RMK A01 T03440150  RH  031%=      5-min Rain = 0
KAM1 201723Z 21015KT 35/15 A2995 RMK A01 T03480149  RH  030%=      5-min Rain = 0
KAM1 201724Z 20014KT 35/15 A2995 RMK A01 T03490147  RH  030%=      5-min Rain = 0
KAM1 201725Z 20013KT 35/14 A2995 RMK A01 T03480144  RH  030%=      5-min Rain = 0
KAM1 201726Z 19011KT 35/15 A2995 RMK A01 T03450146  RH  030%=      5-min Rain = 0
KAM1 201727Z 19012G17KT 35/15 A2995 RMK A01 T03460146  RH  030%=      5-min Rain = 0
KAM1 201728Z 20014KT 35/15 A2995 RMK A01 T03470149  RH  031%=      5-min Rain = 0
KAM1 201729Z 20013KT 35/15 A2995 RMK A01 T03480148  RH  030%=      5-min Rain = 0
KAM1 201730Z 21011KT 35/15 A2995 RMK A01 T03480150  RH  031%=      5-min Rain = 0
KAM1 201731Z 21013KT 35/15 A2995 RMK A01 T03500149  RH  030%=      5-min Rain = 0
KAM1 201732Z 20012KT 35/15 A2995 RMK A01 T03470148  RH  030%=      5-min Rain = 0
KAM1 201733Z 21012KT 35/15 A2995 RMK A01 T03510152  RH  030%=      5-min Rain = 0
KAM1 201734Z 20013KT 35/15 A2995 RMK A01 T03540150  RH  030%=      5-min Rain = 0
KAM1 201735Z 21012KT 35/15 A2995 RMK A01 T03530149  RH  030%=      5-min Rain = 0
KAM1 201736Z 19012KT 35/15 A2995 RMK A01 T03510149  RH  030%=      5-min Rain = 0
KAM1 201737Z 20015KT 35/15 A2995 RMK A01 T03490149  RH  030%=      5-min Rain = 0
KAM1 201738Z 20014KT 35/15 A2995 RMK A01 T03500149  RH  030%=      5-min Rain = 0
KAM1 201739Z 20015KT 35/15 A2995 RMK A01 T03530147  RH  029%=      5-min Rain = 0
KAM1 201740Z 21013KT 35/15 A2995 RMK A01 T03520148  RH  029%=      5-min Rain = 0
KAM1 201741Z 21013G18KT 35/15 A2995 RMK A01 T03520147  RH  029%=      5-min Rain = 0
KAM1 201742Z 20014KT 35/15 A2995 RMK A01 T03510146  RH  029%=      5-min Rain = 0
KAM1 201743Z 18011KT 35/15 A2995 RMK A01 T03500148  RH  030%=      5-min Rain = 0
KAM1 201744Z 18013KT 36/15 A2995 RMK A01 T03550149  RH  029%=      5-min Rain = 0
KAM1 201745Z 19013KT 36/15 A2995 RMK A01 T03570149  RH  029%=      5-min Rain = 0
KAM1 201746Z 19012KT 36/15 A2995 RMK A01 T03570147  RH  029%=      5-min Rain = 0
KAM1 201747Z 19011G16KT 36/15 A2995 RMK A01 T03550146  RH  029%=      5-min Rain = 0
KAM1 201748Z 19012KT 35/15 A2995 RMK A01 T03540148  RH  029%=      5-min Rain = 0
KAM1 201749Z 20012KT 36/15 A2995 RMK A01 T03550149  RH  029%=      5-min Rain = 0
KAM1 201750Z 21011KT 36/15 A2995 RMK A01 T03550149  RH  029%=      5-min Rain = 0
KAM1 201751Z 22011KT 36/15 A2995 RMK A01 T03570149  RH  029%=      5-min Rain = 0
KAM1 201752Z 22008KT 36/15 A2995 RMK A01 T03580149  RH  029%=      5-min Rain = 0
KAM1 201753Z 21009KT 36/15 A2995 RMK A01 T03600148  RH  028%=      5-min Rain = 0
KAM1 201754Z 19013KT 36/15 A2995 RMK A01 T03600151  RH  029%=      5-min Rain = 0
KAM1 201755Z 19013KT 36/15 A2995 RMK A01 T03620151  RH  029%=      5-min Rain = 0
KAM1 201756Z 19013KT 36/15 A2994 RMK A01 T03620150  RH  028%=      5-min Rain = 0
KAM1 201757Z 20010KT 36/15 A2994 RMK A01 T03600149  RH  028%=      5-min Rain = 0
KAM1 201758Z 20013G18KT 36/15 A2994 RMK A01 T03610150  RH  029%=      5-min Rain = 0
KAM1 201759Z 19015KT 36/15 A2994 RMK A01 T03620148  RH  028%=      5-min Rain = 0
KAM1 201800Z 20014KT 36/15 A2994 RMK A01 T03600149  RH  028%=      5-min Rain = 0
KAM1 201801Z 20011KT 36/15 A2994 RMK A01 T03600148  RH  028%=      5-min Rain = 0
KAM1 201802Z 19008KT 36/15 A2994 RMK A01 T03590147  RH  028%=      5-min Rain = 0
KAM1 201803Z 20012KT 36/15 A2994 RMK A01 T03580149  RH  029%=      5-min Rain = 0
KAM1 201804Z 19010KT 36/15 A2994 RMK A01 T03580150  RH  029%=      5-min Rain = 0
KAM1 201805Z 18013KT 36/15 A2994 RMK A01 T03630152  RH  029%=      5-min Rain = 0
KAM1 201806Z 18010KT 36/15 A2994 RMK A01 T03640147  RH  028%=      5-min Rain = 0
KAM1 201807Z 18009KT 36/15 A2994 RMK A01 T03610148  RH  028%=      5-min Rain = 0
KAM1 201808Z 18009KT 36/15 A2994 RMK A01 T03610150  RH  029%=      5-min Rain = 0
KAM1 201809Z 19011KT 37/15 A2994 RMK A01 T03650151  RH  028%=      5-min Rain = 0
KAM1 201810Z 19010KT 37/15 A2994 RMK A01 T03660152  RH  028%=      5-min Rain = 0
KAM1 201811Z 21013KT 37/15 A2994 RMK A01 T03650150  RH  028%=      5-min Rain = 0
KAM1 201812Z 19014KT 36/15 A2994 RMK A01 T03630147  RH  028%=      5-min Rain = 0
KAM1 201813Z 18014KT 36/15 A2994 RMK A01 T03620147  RH  028%=      5-min Rain = 0
KAM1 201814Z 19017KT 37/15 A2994 RMK A01 T03660149  RH  028%=      5-min Rain = 0
KAM1 201815Z 18014KT 37/15 A2994 RMK A01 T03670148  RH  027%=      5-min Rain = 0
KAM1 201816Z 19011KT 36/15 A2994 RMK A01 T03640150  RH  028%=      5-min Rain = 0
KAM1 201817Z 18012KT 37/15 A2994 RMK A01 T03660150  RH  028%=      5-min Rain = 0
KAM1 201818Z 20015KT 37/15 A2993 RMK A01 T03680148  RH  027%=      5-min Rain = 0
KAM1 201819Z 19016KT 37/15 A2993 RMK A01 T03660148  RH  027%=      5-min Rain = 0
KAM1 201820Z 20013KT 37/15 A2993 RMK A01 T03650148  RH  027%=      5-min Rain = 0
KAM1 201821Z 20009KT 37/15 A2993 RMK A01 T03650149  RH  028%=      5-min Rain = 0
KAM1 201822Z 20010KT 37/15 A2993 RMK A01 T03660150  RH  028%=      5-min Rain = 0
KAM1 201823Z 19009KT 37/15 A2993 RMK A01 T03650148  RH  027%=      5-min Rain = 0
KAM1 201824Z 18016KT 36/15 A2993 RMK A01 T03640150  RH  028%=      5-min Rain = 0
KAM1 201825Z 19014KT 37/15 A2993 RMK A01 T03650146  RH  027%=      5-min Rain = 0
KAM1 201826Z 19012KT 37/15 A2993 RMK A01 T03660148  RH  027%=      5-min Rain = 0
KAM1 201827Z 19012KT 37/15 A2993 RMK A01 T03680147  RH  027%=      5-min Rain = 0
KAM1 201828Z 19014KT 37/15 A2993 RMK A01 T03680148  RH  027%=      5-min Rain = 0
KAM1 201829Z 17011KT 37/15 A2993 RMK A01 T03680151  RH  028%=      5-min Rain = 0
KAM1 201830Z 16013G19KT 37/16 A2993 RMK A01 T03680155  RH  028%=      5-min Rain = 0
KAM1 201831Z 17017KT 37/15 A2993 RMK A01 T03710152  RH  027%=      5-min Rain = 0
KAM1 201832Z 19015KT 37/15 A2993 RMK A01 T03720150  RH  027%=      5-min Rain = 0
KAM1 201833Z 18013KT 37/15 A2993 RMK A01 T03720151  RH  027%=      5-min Rain = 0
KAM1 201834Z 18015KT 37/15 A2993 RMK A01 T03720151  RH  027%=      5-min Rain = 0
KAM1 201835Z 17015KT 37/15 A2993 RMK A01 T03710148  RH  027%=      5-min Rain = 0
KAM1 201836Z 17014KT 37/15 A2993 RMK A01 T03690147  RH  027%=      5-min Rain = 0
KAM1 201837Z 17015KT 37/15 A2993 RMK A01 T03680149  RH  027%=      5-min Rain = 0
KAM1 201838Z 17017KT 37/15 A2993 RMK A01 T03680147  RH  027%=      5-min Rain = 0
KAM1 201839Z 19013G18KT 37/15 A2993 RMK A01 T03690148  RH  027%=      5-min Rain = 0
KAM1 201840Z 20014G20KT 37/15 A2993 RMK A01 T03720147  RH  026%=      5-min Rain = 0
KAM1 201841Z 18016KT 37/15 A2993 RMK A01 T03720149  RH  027%=      5-min Rain = 0
KAM1 201842Z 17016KT 37/15 A2993 RMK A01 T03730145  RH  026%=      5-min Rain = 0
KAM1 201843Z 18012KT 37/15 A2993 RMK A01 T03710146  RH  026%=      5-min Rain = 0
KAM1 201844Z 20016KT 37/15 A2993 RMK A01 T03720147  RH  026%=      5-min Rain = 0
KAM1 201845Z 20012KT 37/15 A2993 RMK A01 T03730146  RH  026%=      5-min Rain = 0
KAM1 201846Z 19014KT 37/15 A2993 RMK A01 T03730149  RH  026%=      5-min Rain = 0
KAM1 201847Z 19015KT 38/14 A2993 RMK A01 T03750143  RH  025%=      5-min Rain = 0
KAM1 201848Z 20012KT 38/14 A2993 RMK A01 T03750143  RH  025%=      5-min Rain = 0
KAM1 201849Z 21013KT 38/15 A2992 RMK A01 T03760147  RH  026%=      5-min Rain = 0
KAM1 201850Z 21011KT 38/15 A2992 RMK A01 T03790151  RH  026%=      5-min Rain = 0
KAM1 201851Z 20014KT 38/15 A2992 RMK A01 T03800148  RH  025%=      5-min Rain = 0
KAM1 201852Z 19017KT 38/15 A2992 RMK A01 T03770146  RH  025%=      5-min Rain = 0
KAM1 201853Z 19017KT 38/14 A2992 RMK A01 T03760142  RH  025%=      5-min Rain = 0
KAM1 201854Z 19015KT 38/14 A2992 RMK A01 T03760141  RH  025%=      5-min Rain = 0
KAM1 201855Z 20013KT 37/14 A2992 RMK A01 T03740142  RH  025%=      5-min Rain = 0
KAM1 201856Z 18011KT 37/15 A2992 RMK A01 T03740145  RH  026%=      5-min Rain = 0
KAM1 201857Z 19015G20KT 38/15 A2992 RMK A01 T03770146  RH  026%=      5-min Rain = 0
KAM1 201858Z 20015KT 38/15 A2992 RMK A01 T03750147  RH  026%=      5-min Rain = 0
KAM1 201859Z 20012KT 37/15 A2992 RMK A01 T03740149  RH  026%=      5-min Rain = 0
KAM1 201900Z 18015G20KT 37/15 A2992 RMK A01 T03740150  RH  027%=      5-min Rain = 0
KAM1 201901Z 18016KT 37/15 A2992 RMK A01 T03740149  RH  026%=      5-min Rain = 0
KAM1 201902Z 18017G22KT 38/15 A2992 RMK A01 T03750148  RH  026%=      5-min Rain = 0
KAM1 201903Z 19013KT 37/15 A2992 RMK A01 T03740149  RH  026%=      5-min Rain = 0
KAM1 201904Z 17016KT 38/15 A2992 RMK A01 T03760151  RH  026%=      5-min Rain = 0
KAM1 201905Z 17015KT 38/15 A2992 RMK A01 T03780150  RH  026%=      5-min Rain = 0
KAM1 201906Z 16014KT 38/15 A2992 RMK A01 T03800152  RH  026%=      5-min Rain = 0
KAM1 201907Z 16015KT 38/15 A2992 RMK A01 T03820148  RH  025%=      5-min Rain = 0
KAM1 201908Z 15015KT 38/15 A2992 RMK A01 T03810148  RH  025%=      5-min Rain = 0
KAM1 201909Z 15016KT 38/14 A2992 RMK A01 T03820144  RH  025%=      5-min Rain = 0
KAM1 201910Z 15013G18KT 38/15 A2992 RMK A01 T03810146  RH  025%=      5-min Rain = 0
KAM1 201911Z 16020KT 38/15 A2992 RMK A01 T03820146  RH  025%=      5-min Rain = 0
KAM1 201912Z 17021G26KT 38/15 A2991 RMK A01 T03800146  RH  025%=      5-min Rain = 0
KAM1 201913Z 18019KT 38/15 A2992 RMK A01 T03760146  RH  025%=      5-min Rain = 0
KAM1 201914Z 18017KT 38/15 A2992 RMK A01 T03760148  RH  026%=      5-min Rain = 0
KAM1 201915Z 17020KT 38/15 A2992 RMK A01 T03770145  RH  025%=      5-min Rain = 0
KAM1 201916Z 17019KT 38/14 A2992 RMK A01 T03760142  RH  025%=      5-min Rain = 0
KAM1 201917Z 16018KT 38/14 A2992 RMK A01 T03770142  RH  025%=      5-min Rain = 0
KAM1 201918Z 17019KT 38/14 A2992 RMK A01 T03790144  RH  025%=      5-min Rain = 0
KAM1 201919Z 18017G22KT 38/15 A2992 RMK A01 T03790145  RH  025%=      5-min Rain = 0
KAM1 201920Z 18018KT 38/15 A2992 RMK A01 T03780145  RH  025%=      5-min Rain = 0
KAM1 201921Z 17016KT 38/14 A2992 RMK A01 T03780141  RH  024%=      5-min Rain = 0
KAM1 201922Z 18015KT 38/14 A2992 RMK A01 T03780142  RH  025%=      5-min Rain = 0
KAM1 201923Z 18015KT 38/14 A2992 RMK A01 T03800143  RH  025%=      5-min Rain = 0
KAM1 201924Z 18012G17KT 38/14 A2992 RMK A01 T03800143  RH  025%=      5-min Rain = 0
KAM1 201925Z 18015G22KT 38/14 A2991 RMK A01 T03790142  RH  025%=      5-min Rain = 0
KAM1 201926Z 18019KT 38/14 A2991 RMK A01 T03790140  RH  024%=      5-min Rain = 0
KAM1 201927Z 17016KT 38/14 A2991 RMK A01 T03790141  RH  024%=      5-min Rain = 0
KAM1 201928Z 16015KT 38/15 A2991 RMK A01 T03800145  RH  025%=      5-min Rain = 0
KAM1 201929Z 17013KT 38/14 A2991 RMK A01 T03810144  RH  025%=      5-min Rain = 0
KAM1 201930Z 17014G19KT 38/15 A2991 RMK A01 T03820146  RH  025%=      5-min Rain = 0
KAM1 201931Z 17015KT 38/14 A2991 RMK A01 T03840142  RH  024%=      5-min Rain = 0
KAM1 201932Z 17017KT 38/14 A2991 RMK A01 T03830136  RH  023%=      5-min Rain = 0
KAM1 201933Z 18015KT 38/14 A2991 RMK A01 T03830136  RH  023%=      5-min Rain = 0
KAM1 201934Z 16018KT 38/13 A2991 RMK A01 T03830132  RH  022%=      5-min Rain = 0
KAM1 201935Z 17018KT 38/13 A2991 RMK A01 T03830130  RH  022%=      5-min Rain = 0
KAM1 201936Z 17015KT 38/14 A2991 RMK A01 T03820135  RH  023%=      5-min Rain = 0
KAM1 201937Z 16011KT 38/14 A2991 RMK A01 T03810139  RH  024%=      5-min Rain = 0
KAM1 201938Z 18013G18KT 38/14 A2991 RMK A01 T03840140  RH  024%=      5-min Rain = 0
KAM1 201939Z 17019KT 39/14 A2991 RMK A01 T03860137  RH  023%=      5-min Rain = 0
KAM1 201940Z 17018KT 39/13 A2991 RMK A01 T03860132  RH  022%=      5-min Rain = 0
KAM1 201941Z 17017KT 38/13 A2991 RMK A01 T03840131  RH  022%=      5-min Rain = 0
KAM1 201942Z 17013KT 38/13 A2991 RMK A01 T03820134  RH  023%=      5-min Rain = 0
KAM1 201943Z 18014G19KT 38/13 A2991 RMK A01 T03820134  RH  023%=      5-min Rain = 0
KAM1 201944Z 19014KT 38/13 A2991 RMK A01 T03840132  RH  022%=      5-min Rain = 0
KAM1 201945Z 18014KT 38/13 A2991 RMK A01 T03840130  RH  022%=      5-min Rain = 0
KAM1 201946Z 18013KT 38/13 A2991 RMK A01 T03840128  RH  022%=      5-min Rain = 0
KAM1 201947Z 17014KT 38/13 A2991 RMK A01 T03810134  RH  023%=      5-min Rain = 0
KAM1 201948Z 17018G24KT 38/14 A2991 RMK A01 T03810139  RH  024%=      5-min Rain = 0
KAM1 201949Z 18020KT 39/13 A2991 RMK A01 T03850129  RH  022%=      5-min Rain = 0
KAM1 201950Z 19016KT 39/13 A2991 RMK A01 T03850128  RH  022%=      5-min Rain = 0
KAM1 201951Z 18016KT 39/13 A2991 RMK A01 T03860130  RH  022%=      5-min Rain = 0
KAM1 201952Z 19015KT 39/13 A2991 RMK A01 T03870126  RH  021%=      5-min Rain = 0
KAM1 201953Z 20016KT 39/12 A2991 RMK A01 T03870124  RH  021%=      5-min Rain = 0
KAM1 201954Z 19015KT 39/12 A2991 RMK A01 T03850121  RH  021%=      5-min Rain = 0
KAM1 201955Z 19013KT 38/12 A2991 RMK A01 T03840122  RH  021%=      5-min Rain = 0
KAM1 201956Z 19016KT 39/13 A2991 RMK A01 T03890127  RH  021%=      5-min Rain = 0
KAM1 201957Z 19015G21KT 39/13 A2991 RMK A01 T03900127  RH  021%=      5-min Rain = 0
KAM1 201958Z 19012KT 39/14 A2991 RMK A01 T03880135  RH  022%=      5-min Rain = 0
KAM1 201959Z 15013G19KT 39/13 A299 RMK A01 T03890134  RH  022%=      5-min Rain = 0
KAM1 202000Z 17017G22KT 39/13 A299 RMK A01 T03890129  RH  021%=      5-min Rain = 0
KAM1 202001Z 17015KT 39/13 A299 RMK A01 T03890127  RH  021%=      5-min Rain = 0
KAM1 202002Z 18013KT 39/13 A299 RMK A01 T03870127  RH  021%=      5-min Rain = 0
KAM1 202003Z 20014KT 39/14 A299 RMK A01 T03850135  RH  023%=      5-min Rain = 0
KAM1 202004Z 20017KT 39/14 A299 RMK A01 T03870135  RH  022%=      5-min Rain = 0
KAM1 202005Z 20014KT 39/13 A299 RMK A01 T03860134  RH  022%=      5-min Rain = 0
KAM1 202006Z 21017G24KT 39/13 A299 RMK A01 T03880130  RH  022%=      5-min Rain = 0
KAM1 202007Z 20017KT 39/12 A299 RMK A01 T03900121  RH  020%=      5-min Rain = 0
KAM1 202008Z 20012KT 39/12 A299 RMK A01 T03890115  RH  020%=      5-min Rain = 0
KAM1 202009Z 21012KT 39/12 A299 RMK A01 T03850119  RH  020%=      5-min Rain = 0
KAM1 202010Z 19010KT 38/12 A299 RMK A01 T03840124  RH  021%=      5-min Rain = 0
KAM1 202011Z 19012G20KT 39/13 A299 RMK A01 T03850129  RH  022%=      5-min Rain = 0
KAM1 202012Z 17016KT 39/14 A299 RMK A01 T03880137  RH  023%=      5-min Rain = 0
KAM1 202013Z 16015KT 39/13 A299 RMK A01 T03880128  RH  021%=      5-min Rain = 0
KAM1 202014Z 18015KT 39/13 A299 RMK A01 T03870134  RH  022%=      5-min Rain = 0
KAM1 202015Z 20013G18KT 39/14 A299 RMK A01 T03880139  RH  023%=      5-min Rain = 0
KAM1 202016Z 20015KT 39/13 A299 RMK A01 T03930129  RH  021%=      5-min Rain = 0
KAM1 202017Z 19013KT 39/13 A299 RMK A01 T03920127  RH  021%=      5-min Rain = 0
KAM1 202018Z 20014G19KT 39/13 A299 RMK A01 T03900126  RH  021%=      5-min Rain = 0
KAM1 202019Z 18013KT 39/13 A299 RMK A01 T03900132  RH  022%=      5-min Rain = 0
KAM1 202020Z 17015KT 39/14 A299 RMK A01 T03900135  RH  022%=      5-min Rain = 0
KAM1 202021Z 17015KT 39/13 A299 RMK A01 T03900134  RH  022%=      5-min Rain = 0
KAM1 202022Z 16016KT 39/13 A299 RMK A01 T03900132  RH  022%=      5-min Rain = 0
KAM1 202023Z 15017KT 39/13 A299 RMK A01 T03880134  RH  022%=      5-min Rain = 0
KAM1 202024Z 17015G21KT 39/13 A299 RMK A01 T03880130  RH  022%=      5-min Rain = 0
KAM1 202025Z 18014G19KT 39/13 A299 RMK A01 T03870130  RH  022%=      5-min Rain = 0
KAM1 202026Z 19018KT 39/14 A299 RMK A01 T03880135  RH  022%=      5-min Rain = 0
KAM1 202027Z 19019KT 39/13 A299 RMK A01 T03900131  RH  022%=      5-min Rain = 0
KAM1 202028Z 20018KT 39/13 A299 RMK A01 T03860129  RH  022%=      5-min Rain = 0
KAM1 202029Z 21014G19KT 39/13 A299 RMK A01 T03860128  RH  022%=      5-min Rain = 0
KAM1 202030Z 21010G18KT 39/13 A299 RMK A01 T03860128  RH  021%=      5-min Rain = 0
KAM1 202031Z 19009KT 39/13 A299 RMK A01 T03860132  RH  022%=      5-min Rain = 0
KAM1 202032Z 17014KT 39/13 A299 RMK A01 T03870130  RH  022%=      5-min Rain = 0
KAM1 202033Z 17012KT 39/13 A299 RMK A01 T03870127  RH  021%=      5-min Rain = 0
KAM1 202034Z 18014KT 39/13 A299 RMK A01 T03890130  RH  022%=      5-min Rain = 0
KAM1 202035Z 18019KT 39/13 A299 RMK A01 T03930129  RH  021%=      5-min Rain = 0
KAM1 202036Z 18019KT 39/13 A299 RMK A01 T03910128  RH  021%=      5-min Rain = 0
KAM1 202037Z 20016G21KT 39/13 A299 RMK A01 T03870130  RH  022%=      5-min Rain = 0
KAM1 202038Z 20016KT 39/13 A299 RMK A01 T03870131  RH  022%=      5-min Rain = 0
KAM1 202039Z 18015KT 39/13 A299 RMK A01 T03870128  RH  021%=      5-min Rain = 0
KAM1 202040Z 19017KT 39/13 A299 RMK A01 T03850126  RH  021%=      5-min Rain = 0
KAM1 202041Z 18013G18KT 39/13 A299 RMK A01 T03850127  RH  021%=      5-min Rain = 0
KAM1 202042Z 19012KT 39/12 A299 RMK A01 T03860124  RH  021%=      5-min Rain = 0
KAM1 202043Z 20017KT 39/13 A299 RMK A01 T03860126  RH  021%=      5-min Rain = 0
KAM1 202044Z 19017KT 39/13 A299 RMK A01 T03860127  RH  021%=      5-min Rain = 0
KAM1 202045Z 18017KT 39/13 A299 RMK A01 T03860126  RH  021%=      5-min Rain = 0
KAM1 202046Z 18015KT 39/12 A299 RMK A01 T03860123  RH  021%=      5-min Rain = 0
KAM1 202047Z 16012KT 39/12 A299 RMK A01 T03870123  RH  021%=      5-min Rain = 0
KAM1 202048Z 16012KT 39/12 A299 RMK A01 T03880124  RH  021%=      5-min Rain = 0
KAM1 202049Z 18016KT 39/13 A299 RMK A01 T03890127  RH  021%=      5-min Rain = 0
KAM1 202050Z 18017KT 39/13 A299 RMK A01 T03900128  RH  021%=      5-min Rain = 0
KAM1 202051Z 18018KT 39/13 A299 RMK A01 T03900126  RH  021%=      5-min Rain = 0
KAM1 202052Z 18018G23KT 39/13 A299 RMK A01 T03890127  RH  021%=      5-min Rain = 0
KAM1 202053Z 18018KT 39/13 A299 RMK A01 T03860126  RH  021%=      5-min Rain = 0
KAM1 202054Z 18016KT 39/13 A299 RMK A01 T03850126  RH  021%=      5-min Rain = 0
KAM1 202055Z 18015G20KT 39/12 A299 RMK A01 T03870124  RH  021%=      5-min Rain = 0
KAM1 202056Z 20018KT 39/13 A299 RMK A01 T03880126  RH  021%=      5-min Rain = 0
KAM1 202057Z 20018KT 39/12 A299 RMK A01 T03890123  RH  021%=      5-min Rain = 0
KAM1 202058Z 19016G21KT 39/12 A299 RMK A01 T03880123  RH  021%=      5-min Rain = 0
KAM1 202059Z 18010KT 39/12 A299 RMK A01 T03880123  RH  021%=      5-min Rain = 0
KAM1 202100Z 19013KT 39/12 A299 RMK A01 T03880123  RH  021%=      5-min Rain = 0
KAM1 202101Z 20016KT 39/12 A299 RMK A01 T03890124  RH  021%=      5-min Rain = 0
KAM1 202102Z 19014KT 39/12 A299 RMK A01 T03890121  RH  020%=      5-min Rain = 0
KAM1 202103Z 18012KT 39/12 A299 RMK A01 T03880121  RH  020%=      5-min Rain = 0
KAM1 202104Z 19012KT 39/12 A299 RMK A01 T03870124  RH  021%=      5-min Rain = 0
KAM1 202105Z 19017KT 39/13 A299 RMK A01 T03920127  RH  021%=      5-min Rain = 0
KAM1 202106Z 18016KT 39/12 A299 RMK A01 T03920120  RH  020%=      5-min Rain = 0
KAM1 202107Z 18015KT 39/12 A299 RMK A01 T03890122  RH  021%=      5-min Rain = 0
KAM1 202108Z 19013KT 39/12 A299 RMK A01 T03890124  RH  021%=      5-min Rain = 0
KAM1 202109Z 19013KT 39/12 A299 RMK A01 T03890122  RH  020%=      5-min Rain = 0
KAM1 202110Z 19017KT 39/12 A299 RMK A01 T03880122  RH  021%=      5-min Rain = 0
KAM1 202111Z 19013G18KT 39/12 A299 RMK A01 T03870119  RH  020%=      5-min Rain = 0
KAM1 202112Z 20008KT 39/12 A2989 RMK A01 T03860120  RH  020%=      5-min Rain = 0
KAM1 202113Z 20009G15KT 39/13 A2989 RMK A01 T03880125  RH  021%=      5-min Rain = 0
KAM1 202114Z 18014KT 39/13 A2989 RMK A01 T03920126  RH  021%=      5-min Rain = 0
KAM1 202115Z 19018KT 39/12 A2989 RMK A01 T03930124  RH  020%=      5-min Rain = 0
KAM1 202116Z 20013KT 39/12 A2989 RMK A01 T03920124  RH  020%=      5-min Rain = 0
KAM1 202117Z 18014G20KT 39/12 A2989 RMK A01 T03930124  RH  020%=      5-min Rain = 0
KAM1 202118Z 18016KT 39/12 A2989 RMK A01 T03940121  RH  020%=      5-min Rain = 0
KAM1 202119Z 20013KT 39/13 A2989 RMK A01 T03930125  RH  020%=      5-min Rain = 0
KAM1 202120Z 20013KT 39/12 A2989 RMK A01 T03940123  RH  020%=      5-min Rain = 0
KAM1 202121Z 20016KT 39/12 A2989 RMK A01 T03940124  RH  020%=      5-min Rain = 0
KAM1 202122Z 18011KT 39/12 A2989 RMK A01 T03930121  RH  020%=      5-min Rain = 0
KAM1 202123Z 19014KT 39/12 A2989 RMK A01 T03910122  RH  020%=      5-min Rain = 0
KAM1 202124Z 20012KT 39/12 A2989 RMK A01 T03910120  RH  020%=      5-min Rain = 0
KAM1 202125Z 21009KT 39/12 A2989 RMK A01 T03900124  RH  021%=      5-min Rain = 0
KAM1 202126Z 22012KT 39/12 A2988 RMK A01 T03910123  RH  020%=      5-min Rain = 0
KAM1 202127Z 22012KT 39/12 A2988 RMK A01 T03920122  RH  020%=      5-min Rain = 0
KAM1 202128Z 20014G19KT 39/12 A2989 RMK A01 T03920122  RH  020%=      5-min Rain = 0
KAM1 202129Z 19015G20KT 39/12 A2989 RMK A01 T03900122  RH  020%=      5-min Rain = 0
KAM1 202130Z 18013KT 39/12 A2989 RMK A01 T03890122  RH  020%=      5-min Rain = 0
KAM1 202131Z 19013KT 39/12 A2988 RMK A01 T03920123  RH  020%=      5-min Rain = 0
KAM1 202132Z 20011G18KT 39/13 A2989 RMK A01 T03940126  RH  020%=      5-min Rain = 0
KAM1 202133Z 18015KT 40/12 A2989 RMK A01 T03960124  RH  020%=      5-min Rain = 0
KAM1 202134Z 19014G20KT 40/12 A2989 RMK A01 T03950124  RH  020%=      5-min Rain = 0
KAM1 202135Z 20015KT 39/12 A2988 RMK A01 T03940120  RH  020%=      5-min Rain = 0
KAM1 202136Z 20013KT 39/12 A2988 RMK A01 T03900120  RH  020%=      5-min Rain = 0
KAM1 202137Z 20013KT 39/12 A2988 RMK A01 T03880123  RH  021%=      5-min Rain = 0
KAM1 202138Z 21015KT 39/13 A2988 RMK A01 T03860126  RH  021%=      5-min Rain = 0
KAM1 202139Z 19014KT 39/13 A2988 RMK A01 T03860128  RH  022%=      5-min Rain = 0
KAM1 202140Z 20013G20KT 39/13 A2988 RMK A01 T03870130  RH  022%=      5-min Rain = 0
KAM1 202141Z 20019KT 39/13 A2988 RMK A01 T03890128  RH  021%=      5-min Rain = 0
KAM1 202142Z 19017G22KT 39/12 A2988 RMK A01 T03910122  RH  020%=      5-min Rain = 0
KAM1 202143Z 21012KT 39/12 A2988 RMK A01 T03900120  RH  020%=      5-min Rain = 0
KAM1 202144Z 20010KT 39/12 A2988 RMK A01 T03880120  RH  020%=      5-min Rain = 0
KAM1 202145Z 20012KT 39/12 A2988 RMK A01 T03910121  RH  020%=      5-min Rain = 0
KAM1 202146Z 20011KT 39/12 A2988 RMK A01 T03920122  RH  020%=      5-min Rain = 0
KAM1 202147Z 19011KT 39/12 A2988 RMK A01 T03920123  RH  020%=      5-min Rain = 0
KAM1 202148Z 19009G17KT 39/13 A2988 RMK A01 T03920127  RH  021%=      5-min Rain = 0
KAM1 202149Z 20014KT 39/12 A2988 RMK A01 T03910122  RH  020%=      5-min Rain = 0
KAM1 202150Z 20011KT 39/12 A2988 RMK A01 T03920123  RH  020%=      5-min Rain = 0
KAM1 202151Z 20016KT 39/13 A2988 RMK A01 T03940125  RH  020%=      5-min Rain = 0
KAM1 202152Z 20016KT 40/12 A2988 RMK A01 T03950121  RH  020%=      5-min Rain = 0
KAM1 202153Z 20017KT 39/12 A2988 RMK A01 T03930119  RH  020%=      5-min Rain = 0
KAM1 202154Z 21017KT 39/12 A2988 RMK A01 T03910118  RH  020%=      5-min Rain = 0
KAM1 202155Z 21016KT 39/12 A2988 RMK A01 T03890119  RH  020%=      5-min Rain = 0
KAM1 202156Z 21014KT 39/12 A2988 RMK A01 T03880122  RH  020%=      5-min Rain = 0
KAM1 202157Z 20010KT 39/13 A2988 RMK A01 T03900125  RH  021%=      5-min Rain = 0
KAM1 202158Z 19011G17KT 39/13 A2988 RMK A01 T03940126  RH  020%=      5-min Rain = 0
KAM1 202159Z 18017KT 40/13 A2988 RMK A01 T03960129  RH  021%=      5-min Rain = 0
KAM1 202200Z 18016G21KT 39/13 A2988 RMK A01 T03940130  RH  021%=      5-min Rain = 0
KAM1 202201Z 17015KT 39/13 A2988 RMK A01 T03900131  RH  022%=      5-min Rain = 0
KAM1 202202Z 17018G23KT 39/13 A2988 RMK A01 T03890133  RH  022%=      5-min Rain = 0
KAM1 202203Z 18018G24KT 39/14 A2988 RMK A01 T03890135  RH  022%=      5-min Rain = 0
KAM1 202204Z 19014KT 39/13 A2988 RMK A01 T03890134  RH  022%=      5-min Rain = 0
KAM1 202205Z 17010KT 39/14 A2988 RMK A01 T03880136  RH  022%=      5-min Rain = 0
KAM1 202206Z 16014KT 39/13 A2988 RMK A01 T03890134  RH  022%=      5-min Rain = 0
KAM1 202207Z 18015G25KT 39/13 A2987 RMK A01 T03900132  RH  022%=      5-min Rain = 0
KAM1 202208Z 20014KT 39/13 A2988 RMK A01 T03920133  RH  022%=      5-min Rain = 0
KAM1 202209Z 20015KT 40/13 A2988 RMK A01 T03950127  RH  020%=      5-min Rain = 0
KAM1 202210Z 20011G17KT 40/12 A2988 RMK A01 T03950124  RH  020%=      5-min Rain = 0
KAM1 202211Z 21014KT 40/12 A2988 RMK A01 T03950120  RH  020%=      5-min Rain = 0
KAM1 202212Z 20014KT 39/12 A2988 RMK A01 T03940120  RH  020%=      5-min Rain = 0
KAM1 202213Z 21014KT 39/12 A2988 RMK A01 T03930119  RH  020%=      5-min Rain = 0
KAM1 202214Z 21014KT 39/12 A2988 RMK A01 T03900118  RH  020%=      5-min Rain = 0
KAM1 202215Z 21011KT 39/12 A2988 RMK A01 T03890121  RH  020%=      5-min Rain = 0
KAM1 202216Z 20011KT 39/12 A2988 RMK A01 T03910124  RH  020%=      5-min Rain = 0
KAM1 202217Z 21014KT 39/12 A2988 RMK A01 T03940123  RH  020%=      5-min Rain = 0
KAM1 202218Z 19014KT 39/12 A2988 RMK A01 T03930123  RH  020%=      5-min Rain = 0
KAM1 202219Z 20014G19KT 39/13 A2988 RMK A01 T03920130  RH  021%=      5-min Rain = 0
KAM1 202220Z 19013KT 39/13 A2987 RMK A01 T03910130  RH  021%=      5-min Rain = 0
KAM1 202221Z 18010KT 39/13 A2988 RMK A01 T03900134  RH  022%=      5-min Rain = 0
KAM1 202222Z 20009KT 39/14 A2988 RMK A01 T03920136  RH  022%=      5-min Rain = 0
KAM1 202223Z 19013G18KT 39/14 A2987 RMK A01 T03940136  RH  022%=      5-min Rain = 0
KAM1 202224Z 20015KT 40/13 A2987 RMK A01 T03950128  RH  020%=      5-min Rain = 0
KAM1 202225Z 19018KT 39/13 A2987 RMK A01 T03910126  RH  021%=      5-min Rain = 0
KAM1 202226Z 18011G17KT 39/13 A2988 RMK A01 T03880131  RH  022%=      5-min Rain = 0
KAM1 202227Z 17013KT 39/13 A2987 RMK A01 T03900133  RH  022%=      5-min Rain = 0
KAM1 202228Z 17018G24KT 39/13 A2987 RMK A01 T03900133  RH  022%=      5-min Rain = 0
KAM1 202229Z 18015G20KT 39/13 A2987 RMK A01 T03880132  RH  022%=      5-min Rain = 0
KAM1 202230Z 19015KT 39/13 A2987 RMK A01 T03860131  RH  022%=      5-min Rain = 0
KAM1 202231Z 19017G22KT 38/13 A2987 RMK A01 T03840132  RH  022%=      5-min Rain = 0
KAM1 202232Z 18016G22KT 39/13 A2987 RMK A01 T03850130  RH  022%=      5-min Rain = 0
KAM1 202233Z 17015KT 38/13 A2987 RMK A01 T03840132  RH  022%=      5-min Rain = 0
KAM1 202234Z 17012KT 39/13 A2987 RMK A01 T03850132  RH  022%=      5-min Rain = 0
KAM1 202235Z 18015KT 39/13 A2987 RMK A01 T03870132  RH  022%=      5-min Rain = 0
KAM1 202236Z 20013KT 39/13 A2987 RMK A01 T03870133  RH  022%=      5-min Rain = 0
KAM1 202237Z 20012KT 39/13 A2987 RMK A01 T03860133  RH  022%=      5-min Rain = 0
KAM1 202238Z 18014G19KT 39/13 A2987 RMK A01 T03860133  RH  022%=      5-min Rain = 0
KAM1 202239Z 18015KT 39/14 A2987 RMK A01 T03860135  RH  023%=      5-min Rain = 0
KAM1 202240Z 17016KT 39/14 A2987 RMK A01 T03850136  RH  023%=      5-min Rain = 0
KAM1 202241Z 18014KT 38/14 A2987 RMK A01 T03840139  RH  023%=      5-min Rain = 0
KAM1 202242Z 18014KT 38/14 A2987 RMK A01 T03840138  RH  023%=      5-min Rain = 0
KAM1 202243Z 18014KT 39/14 A2987 RMK A01 T03850136  RH  023%=      5-min Rain = 0
KAM1 202244Z 16016KT 39/14 A2987 RMK A01 T03870135  RH  022%=      5-min Rain = 0
KAM1 202245Z 16017KT 39/13 A2987 RMK A01 T03880130  RH  022%=      5-min Rain = 0
KAM1 202246Z 16016KT 39/13 A2987 RMK A01 T03870127  RH  021%=      5-min Rain = 0
KAM1 202247Z 17012KT 38/13 A2987 RMK A01 T03840126  RH  022%=      5-min Rain = 0
KAM1 202248Z 17009KT 38/13 A2987 RMK A01 T03840130  RH  022%=      5-min Rain = 0
KAM1 202249Z 17012KT 39/13 A2987 RMK A01 T03860130  RH  022%=      5-min Rain = 0
KAM1 202250Z 17016KT 39/13 A2987 RMK A01 T03880128  RH  021%=      5-min Rain = 0
KAM1 202251Z 17015G21KT 39/13 A2987 RMK A01 T03870127  RH  021%=      5-min Rain = 0
KAM1 202252Z 16012G18KT 38/13 A2987 RMK A01 T03840129  RH  022%=      5-min Rain = 0
KAM1 202253Z 17014G19KT 38/13 A2987 RMK A01 T03840131  RH  022%=      5-min Rain = 0
KAM1 202254Z 17013KT 39/13 A2987 RMK A01 T03850131  RH  022%=      5-min Rain = 0
KAM1 202255Z 18011KT 39/13 A2987 RMK A01 T03850132  RH  022%=      5-min Rain = 0
KAM1 202256Z 17016KT 39/13 A2987 RMK A01 T03860133  RH  022%=      5-min Rain = 0
KAM1 202257Z 17017KT 39/13 A2987 RMK A01 T03870132  RH  022%=      5-min Rain = 0
KAM1 202258Z 18018KT 39/13 A2987 RMK A01 T03860131  RH  022%=      5-min Rain = 0
KAM1 202259Z 19014G19KT 38/13 A2987 RMK A01 T03840129  RH  022%=      5-min Rain = 0
KAM1 202300Z 19017KT 38/13 A2987 RMK A01 T03820130  RH  022%=      5-min Rain = 0
KAM1 202301Z 18018KT 38/13 A2987 RMK A01 T03820131  RH  022%=      5-min Rain = 0
KAM1 202302Z 18016G21KT 38/13 A2987 RMK A01 T03810131  RH  023%=      5-min Rain = 0
KAM1 202303Z 18017KT 38/13 A2987 RMK A01 T03810131  RH  023%=      5-min Rain = 0
KAM1 202304Z 18013KT 38/13 A2987 RMK A01 T03800130  RH  023%=      5-min Rain = 0
KAM1 202305Z 17014G19KT 38/13 A2987 RMK A01 T03800133  RH  023%=      5-min Rain = 0
KAM1 202306Z 16013KT 38/13 A2987 RMK A01 T03820134  RH  023%=      5-min Rain = 0
KAM1 202307Z 18012KT 38/14 A2987 RMK A01 T03830137  RH  023%=      5-min Rain = 0
KAM1 202308Z 17016G24KT 38/14 A2987 RMK A01 T03840137  RH  023%=      5-min Rain = 0
KAM1 202309Z 18017G23KT 38/14 A2986 RMK A01 T03840136  RH  023%=      5-min Rain = 0
KAM1 202310Z 19012KT 38/14 A2987 RMK A01 T03830135  RH  023%=      5-min Rain = 0
KAM1 202311Z 19013KT 39/13 A2987 RMK A01 T03850133  RH  022%=      5-min Rain = 0
KAM1 202312Z 19011KT 39/13 A2987 RMK A01 T03860133  RH  022%=      5-min Rain = 0
KAM1 202313Z 19012KT 39/13 A2987 RMK A01 T03860133  RH  022%=      5-min Rain = 0
KAM1 202314Z 18012KT 39/13 A2987 RMK A01 T03860132  RH  022%=      5-min Rain = 0
KAM1 202315Z 17013KT 39/13 A2987 RMK A01 T03850131  RH  022%=      5-min Rain = 0
KAM1 202316Z 18017KT 38/13 A2987 RMK A01 T03840129  RH  022%=      5-min Rain = 0
KAM1 202317Z 17016KT 38/13 A2987 RMK A01 T03820131  RH  023%=      5-min Rain = 0
KAM1 202318Z 15013KT 38/13 A2987 RMK A01 T03810132  RH  023%=      5-min Rain = 0
KAM1 202319Z 16015KT 38/13 A2986 RMK A01 T03820132  RH  023%=      5-min Rain = 0
KAM1 202320Z 17017KT 38/13 A2986 RMK A01 T03820133  RH  023%=      5-min Rain = 0
KAM1 202321Z 18015KT 38/13 A2986 RMK A01 T03830134  RH  023%=      5-min Rain = 0
KAM1 202322Z 19012KT 38/14 A2986 RMK A01 T03830135  RH  023%=      5-min Rain = 0
KAM1 202323Z 18017G22KT 38/14 A2986 RMK A01 T03840138  RH  023%=      5-min Rain = 0
KAM1 202324Z 18018G23KT 38/14 A2986 RMK A01 T03840136  RH  023%=      5-min Rain = 0
KAM1 202325Z 18017G24KT 38/13 A2986 RMK A01 T03820133  RH  023%=      5-min Rain = 0
KAM1 202326Z 18018G23KT 38/14 A2986 RMK A01 T03800135  RH  023%=      5-min Rain = 0
KAM1 202327Z 18016G22KT 38/13 A2986 RMK A01 T03790134  RH  023%=      5-min Rain = 0
KAM1 202328Z 18014KT 38/14 A2986 RMK A01 T03780135  RH  024%=      5-min Rain = 0
KAM1 202329Z 17013KT 38/14 A2986 RMK A01 T03780137  RH  024%=      5-min Rain = 0
KAM1 202330Z 18013KT 38/14 A2986 RMK A01 T03780137  RH  024%=      5-min Rain = 0
KAM1 202331Z 17013KT 38/14 A2986 RMK A01 T03770140  RH  024%=      5-min Rain = 0
KAM1 202332Z 16011G17KT 38/14 A2986 RMK A01 T03780140  RH  024%=      5-min Rain = 0
KAM1 202333Z 15014KT 38/14 A2986 RMK A01 T03780138  RH  024%=      5-min Rain = 0
KAM1 202334Z 15018KT 38/14 A2986 RMK A01 T03780138  RH  024%=      5-min Rain = 0
KAM1 202335Z 18017G24KT 38/14 A2985 RMK A01 T03790138  RH  024%=      5-min Rain = 0
KAM1 202336Z 18014KT 38/13 A2986 RMK A01 T03800133  RH  023%=      5-min Rain = 0
KAM1 202337Z 17017KT 38/14 A2986 RMK A01 T03800135  RH  023%=      5-min Rain = 0
KAM1 202338Z 18017KT 38/13 A2986 RMK A01 T03800134  RH  023%=      5-min Rain = 0
KAM1 202339Z 18014KT 38/14 A2986 RMK A01 T03790136  RH  024%=      5-min Rain = 0
KAM1 202340Z 17015KT 38/14 A2986 RMK A01 T03790138  RH  024%=      5-min Rain = 0
KAM1 202341Z 17014KT 38/14 A2986 RMK A01 T03780140  RH  024%=      5-min Rain = 0
KAM1 202342Z 16015KT 38/14 A2986 RMK A01 T03770141  RH  025%=      5-min Rain = 0
KAM1 202343Z 17014KT 38/14 A2986 RMK A01 T03760140  RH  025%=      5-min Rain = 0
KAM1 202344Z 18011KT 38/14 A2986 RMK A01 T03760139  RH  024%=      5-min Rain = 0
KAM1 202345Z 19013KT 38/14 A2986 RMK A01 T03770137  RH  024%=      5-min Rain = 0
KAM1 202346Z 18012KT 38/14 A2986 RMK A01 T03770135  RH  024%=      5-min Rain = 0
KAM1 202347Z 18016G22KT 38/14 A2986 RMK A01 T03770136  RH  024%=      5-min Rain = 0
KAM1 202348Z 18019KT 38/14 A2986 RMK A01 T03770136  RH  024%=      5-min Rain = 0
KAM1 202349Z 17017KT 38/14 A2986 RMK A01 T03760136  RH  024%=      5-min Rain = 0
KAM1 202350Z 17016KT 37/14 A2986 RMK A01 T03740136  RH  024%=      5-min Rain = 0
KAM1 202351Z 16015KT 37/14 A2986 RMK A01 T03740136  RH  024%=      5-min Rain = 0
KAM1 202352Z 17016KT 37/14 A2986 RMK A01 T03740136  RH  024%=      5-min Rain = 0
KAM1 202353Z 17014KT 37/14 A2986 RMK A01 T03730137  RH  024%=      5-min Rain = 0
KAM1 202354Z 17017KT 37/14 A2986 RMK A01 T03730136  RH  024%=      5-min Rain = 0
KAM1 202355Z 16017KT 37/14 A2986 RMK A01 T03730136  RH  024%=      5-min Rain = 0
KAM1 202356Z 17015KT 37/14 A2986 RMK A01 T03730136  RH  025%=      5-min Rain = 0
KAM1 202357Z 16015KT 37/14 A2986 RMK A01 T03720138  RH  025%=      5-min Rain = 0
KAM1 202358Z 18015KT 37/14 A2986 RMK A01 T03730141  RH  025%=      5-min Rain = 0
KAM1 202359Z 16012KT 37/14 A2986 RMK A01 T03740142  RH  025%=      5-min Rain = 0
KAM1 210000Z 17019G24KT 38/14 A2986 RMK A01 T03750141  RH  025%=      5-min Rain = 0
KAM1 210001Z 16020KT 37/14 A2986 RMK A01 T03740139  RH  025%=      5-min Rain = 0
KAM1 210002Z 16017KT 37/14 A2986 RMK A01 T03720138  RH  025%=      5-min Rain = 0
KAM1 210003Z 17014KT 37/14 A2986 RMK A01 T03710138  RH  025%=      5-min Rain = 0
KAM1 210004Z 16017KT 37/14 A2986 RMK A01 T03710139  RH  025%=      5-min Rain = 0
KAM1 210005Z 16016KT 37/14 A2986 RMK A01 T03710139  RH  025%=      5-min Rain = 0
KAM1 210006Z 17017KT 37/14 A2986 RMK A01 T03710140  RH  025%=      5-min Rain = 0
KAM1 210007Z 16017KT 37/14 A2986 RMK A01 T03710140  RH  025%=      5-min Rain = 0
KAM1 210008Z 16016KT 37/14 A2986 RMK A01 T03700140  RH  025%=      5-min Rain = 0
KAM1 210009Z 17014KT 37/14 A2986 RMK A01 T03690140  RH  026%=      5-min Rain = 0
KAM1 210010Z 17015KT 37/14 A2986 RMK A01 T03690141  RH  026%=      5-min Rain = 0
KAM1 210011Z 16014KT 37/14 A2986 RMK A01 T03690142  RH  026%=      5-min Rain = 0
KAM1 210012Z 16014KT 37/14 A2986 RMK A01 T03690142  RH  026%=      5-min Rain = 0
KAM1 210013Z 16017KT 37/14 A2986 RMK A01 T03690143  RH  026%=      5-min Rain = 0
KAM1 210014Z 16015KT 37/14 A2986 RMK A01 T03680142  RH  026%=      5-min Rain = 0
KAM1 210015Z 17015KT 37/14 A2986 RMK A01 T03680143  RH  026%=      5-min Rain = 0
KAM1 210016Z 16017KT 37/14 A2986 RMK A01 T03680142  RH  026%=      5-min Rain = 0
KAM1 210017Z 16017KT 37/14 A2986 RMK A01 T03670141  RH  026%=      5-min Rain = 0
KAM1 210018Z 16015KT 37/14 A2986 RMK A01 T03660142  RH  026%=      5-min Rain = 0
KAM1 210019Z 15017KT 37/14 A2986 RMK A01 T03660141  RH  026%=      5-min Rain = 0
KAM1 210020Z 15016KT 37/14 A2986 RMK A01 T03660140  RH  026%=      5-min Rain = 0
KAM1 210021Z 15016KT 37/14 A2986 RMK A01 T03660141  RH  026%=      5-min Rain = 0
KAM1 210022Z 16014KT 37/14 A2986 RMK A01 T03660142  RH  026%=      5-min Rain = 0
KAM1 210023Z 17015KT 37/14 A2986 RMK A01 T03660142  RH  026%=      5-min Rain = 0
KAM1 210024Z 17014KT 37/14 A2986 RMK A01 T03650142  RH  026%=      5-min Rain = 0
KAM1 210025Z 17013G18KT 37/14 A2986 RMK A01 T03650142  RH  026%=      5-min Rain = 0
KAM1 210026Z 17017KT 37/14 A2986 RMK A01 T03650142  RH  026%=      5-min Rain = 0
KAM1 210027Z 16016KT 37/14 A2986 RMK A01 T03650142  RH  027%=      5-min Rain = 0
KAM1 210028Z 17015KT 37/14 A2986 RMK A01 T03650143  RH  027%=      5-min Rain = 0
KAM1 210029Z 17017KT 37/14 A2986 RMK A01 T03650142  RH  027%=      5-min Rain = 0
KAM1 210030Z 17017KT 36/14 A2986 RMK A01 T03640142  RH  027%=      5-min Rain = 0
KAM1 210031Z 17017KT 36/14 A2986 RMK A01 T03640142  RH  027%=      5-min Rain = 0
KAM1 210032Z 17015KT 36/14 A2986 RMK A01 T03630142  RH  027%=      5-min Rain = 0
KAM1 210033Z 17016KT 36/14 A2986 RMK A01 T03630142  RH  027%=      5-min Rain = 0
KAM1 210034Z 16016KT 36/14 A2986 RMK A01 T03630142  RH  027%=      5-min Rain = 0
KAM1 210035Z 16016KT 36/14 A2986 RMK A01 T03630141  RH  027%=      5-min Rain = 0
KAM1 210036Z 17015G20KT 36/14 A2987 RMK A01 T03630141  RH  027%=      5-min Rain = 0
KAM1 210037Z 17018KT 36/14 A2987 RMK A01 T03620141  RH  027%=      5-min Rain = 0
KAM1 210038Z 17015G20KT 36/14 A2987 RMK A01 T03620142  RH  027%=      5-min Rain = 0
KAM1 210039Z 16016KT 36/14 A2987 RMK A01 T03620142  RH  027%=      5-min Rain = 0
KAM1 210040Z 16014KT 36/14 A2987 RMK A01 T03610142  RH  027%=      5-min Rain = 0
KAM1 210041Z 16017G25KT 36/14 A2987 RMK A01 T03610142  RH  027%=      5-min Rain = 0
KAM1 210042Z 16018KT 36/14 A2987 RMK A01 T03600142  RH  027%=      5-min Rain = 0
KAM1 210043Z 16018KT 36/14 A2987 RMK A01 T03600142  RH  027%=      5-min Rain = 0
KAM1 210044Z 16018KT 36/14 A2987 RMK A01 T03600141  RH  027%=      5-min Rain = 0
KAM1 210045Z 16015KT 36/14 A2987 RMK A01 T03590142  RH  027%=      5-min Rain = 0
KAM1 210046Z 16015G20KT 36/14 A2987 RMK A01 T03590143  RH  027%=      5-min Rain = 0
KAM1 210047Z 16017KT 36/14 A2987 RMK A01 T03580142  RH  027%=      5-min Rain = 0
KAM1 210048Z 16017KT 36/14 A2987 RMK A01 T03580142  RH  027%=      5-min Rain = 0
KAM1 210049Z 16015KT 36/14 A2987 RMK A01 T03580142  RH  027%=      5-min Rain = 0
KAM1 210050Z 17014KT 36/14 A2987 RMK A01 T03580143  RH  028%=      5-min Rain = 0
KAM1 210051Z 16016KT 36/14 A2987 RMK A01 T03570142  RH  028%=      5-min Rain = 0
KAM1 210052Z 16015KT 36/14 A2987 RMK A01 T03570143  RH  028%=      5-min Rain = 0
KAM1 210053Z 16014KT 36/14 A2987 RMK A01 T03560142  RH  028%=      5-min Rain = 0
KAM1 210054Z 15013KT 36/14 A2987 RMK A01 T03560143  RH  028%=      5-min Rain = 0
KAM1 210055Z 16013KT 36/14 A2987 RMK A01 T03550143  RH  028%=      5-min Rain = 0
KAM1 210056Z 15018KT 36/14 A2987 RMK A01 T03550142  RH  028%=      5-min Rain = 0
KAM1 210057Z 15017KT 36/14 A2987 RMK A01 T03550141  RH  028%=      5-min Rain = 0
KAM1 210058Z 16018KT 36/14 A2987 RMK A01 T03550141  RH  028%=      5-min Rain = 0
KAM1 210059Z 16014KT 36/14 A2987 RMK A01 T03550141  RH  028%=      5-min Rain = 0
KAM1 210100Z 16016G22KT 36/14 A2987 RMK A01 T03550142  RH  028%=      5-min Rain = 0
KAM1 210101Z 17013KT 35/14 A2987 RMK A01 T03540142  RH  028%=      5-min Rain = 0
KAM1 210102Z 15014KT 35/14 A2987 RMK A01 T03540142  RH  028%=      5-min Rain = 0
KAM1 210103Z 16015KT 35/14 A2987 RMK A01 T03540142  RH  028%=      5-min Rain = 0
KAM1 210104Z 17013KT 35/14 A2987 RMK A01 T03540142  RH  028%=      5-min Rain = 0
KAM1 210105Z 16013KT 35/14 A2987 RMK A01 T03530143  RH  028%=      5-min Rain = 0
KAM1 210106Z 17015KT 35/14 A2987 RMK A01 T03520141  RH  028%=      5-min Rain = 0
KAM1 210107Z 17015KT 35/14 A2987 RMK A01 T03520141  RH  028%=      5-min Rain = 0
KAM1 210108Z 16014KT 35/14 A2987 RMK A01 T03520141  RH  028%=      5-min Rain = 0
KAM1 210109Z 16013KT 35/14 A2987 RMK A01 T03520142  RH  028%=      5-min Rain = 0
KAM1 210110Z 16014KT 35/14 A2987 RMK A01 T03520142  RH  028%=      5-min Rain = 0
KAM1 210111Z 15013KT 35/14 A2987 RMK A01 T03510142  RH  029%=      5-min Rain = 0
KAM1 210112Z 16014KT 35/14 A2987 RMK A01 T03510142  RH  029%=      5-min Rain = 0
KAM1 210113Z 16013KT 35/14 A2988 RMK A01 T03500142  RH  029%=      5-min Rain = 0
KAM1 210114Z 16014KT 35/14 A2988 RMK A01 T03500142  RH  029%=      5-min Rain = 0
KAM1 210115Z 16013KT 35/14 A2987 RMK A01 T03490140  RH  029%=      5-min Rain = 0
KAM1 210116Z 16011KT 35/14 A2988 RMK A01 T03490142  RH  029%=      5-min Rain = 0
KAM1 210117Z 17013KT 35/14 A2988 RMK A01 T03490142  RH  029%=      5-min Rain = 0
KAM1 210118Z 16017KT 35/14 A2988 RMK A01 T03480141  RH  029%=      5-min Rain = 0
KAM1 210119Z 17014G19KT 35/14 A2988 RMK A01 T03490140  RH  029%=      5-min Rain = 0
KAM1 210120Z 16014KT 35/14 A2988 RMK A01 T03490141  RH  029%=      5-min Rain = 0
KAM1 210121Z 16014KT 35/14 A2988 RMK A01 T03490141  RH  029%=      5-min Rain = 0
KAM1 210122Z 16012KT 35/14 A2988 RMK A01 T03480141  RH  029%=      5-min Rain = 0
KAM1 210123Z 16014G19KT 35/14 A2988 RMK A01 T03480141  RH  029%=      5-min Rain = 0
KAM1 210124Z 17017KT 35/14 A2988 RMK A01 T03470141  RH  029%=      5-min Rain = 0
KAM1 210125Z 16016KT 35/14 A2988 RMK A01 T03470140  RH  029%=      5-min Rain = 0
KAM1 210126Z 17013KT 35/14 A2988 RMK A01 T03480141  RH  029%=      5-min Rain = 0
KAM1 210127Z 16012KT 35/14 A2988 RMK A01 T03470141  RH  029%=      5-min Rain = 0
KAM1 210128Z 16014KT 35/14 A2988 RMK A01 T03470142  RH  029%=      5-min Rain = 0
KAM1 210129Z 17014KT 35/14 A2988 RMK A01 T03460141  RH  029%=      5-min Rain = 0
KAM1 210130Z 17012KT 35/14 A2988 RMK A01 T03460141  RH  029%=      5-min Rain = 0
KAM1 210131Z 17014KT 35/14 A2988 RMK A01 T03450141  RH  029%=      5-min Rain = 0
KAM1 210132Z 16014KT 35/14 A2988 RMK A01 T03450140  RH  029%=      5-min Rain = 0
KAM1 210133Z 17015G20KT 34/14 A2988 RMK A01 T03440140  RH  029%=      5-min Rain = 0
KAM1 210134Z 16013KT 34/14 A2988 RMK A01 T03440140  RH  029%=      5-min Rain = 0
KAM1 210135Z 16013KT 34/14 A2988 RMK A01 T03440140  RH  029%=      5-min Rain = 0
KAM1 210136Z 16013KT 34/14 A2988 RMK A01 T03430141  RH  030%=      5-min Rain = 0
KAM1 210137Z 16013KT 34/14 A2988 RMK A01 T03420140  RH  030%=      5-min Rain = 0
KAM1 210138Z 16014KT 34/14 A2988 RMK A01 T03420141  RH  030%=      5-min Rain = 0
KAM1 210139Z 16012KT 34/14 A2988 RMK A01 T03420141  RH  030%=      5-min Rain = 0
KAM1 210140Z 16014KT 34/14 A2988 RMK A01 T03410141  RH  030%=      5-min Rain = 0
KAM1 210141Z 16012KT 34/14 A2988 RMK A01 T03410141  RH  030%=      5-min Rain = 0
KAM1 210142Z 16011KT 34/14 A2988 RMK A01 T03400141  RH  030%=      5-min Rain = 0
KAM1 210143Z 16013KT 34/14 A2988 RMK A01 T03390141  RH  030%=      5-min Rain = 0
KAM1 210144Z 16012KT 34/14 A2988 RMK A01 T03390141  RH  030%=      5-min Rain = 0
KAM1 210145Z 16014KT 34/14 A2988 RMK A01 T03380141  RH  031%=      5-min Rain = 0
KAM1 210146Z 16012G17KT 34/14 A2988 RMK A01 T03380141  RH  031%=      5-min Rain = 0
KAM1 210147Z 16014KT 34/14 A2988 RMK A01 T03380141  RH  031%=      5-min Rain = 0
KAM1 210148Z 16014KT 34/14 A2988 RMK A01 T03380140  RH  030%=      5-min Rain = 0
KAM1 210149Z 16014KT 34/14 A2988 RMK A01 T03380140  RH  030%=      5-min Rain = 0
KAM1 210150Z 16014KT 34/14 A2988 RMK A01 T03370140  RH  030%=      5-min Rain = 0
KAM1 210151Z 16011KT 34/14 A2988 RMK A01 T03380140  RH  030%=      5-min Rain = 0
KAM1 210152Z 16011KT 34/14 A2988 RMK A01 T03370141  RH  031%=      5-min Rain = 0
KAM1 210153Z 16012KT 34/14 A2988 RMK A01 T03360141  RH  031%=      5-min Rain = 0
KAM1 210154Z 16012KT 34/14 A2988 RMK A01 T03350141  RH  031%=      5-min Rain = 0
KAM1 210155Z 16012KT 33/14 A2988 RMK A01 T03340141  RH  031%=      5-min Rain = 0
KAM1 210156Z 16013KT 33/14 A2988 RMK A01 T03330141  RH  031%=      5-min Rain = 0
KAM1 210157Z 16016KT 33/14 A2988 RMK A01 T03330140  RH  031%=      5-min Rain = 0
KAM1 210158Z 16013KT 33/14 A2988 RMK A01 T03340140  RH  031%=      5-min Rain = 0
KAM1 210159Z 16012KT 33/14 A2988 RMK A01 T03340140  RH  031%=      5-min Rain = 0
KAM1 210200Z 16014KT 33/14 A2988 RMK A01 T03340140  RH  031%=      5-min Rain = 0
KAM1 210201Z 16013KT 33/14 A2988 RMK A01 T03340141  RH  031%=      5-min Rain = 0
KAM1 210202Z 16013KT 33/14 A2988 RMK A01 T03330140  RH  031%=      5-min Rain = 0
KAM1 210203Z 17012G17KT 33/14 A2988 RMK A01 T03320140  RH  031%=      5-min Rain = 0
KAM1 210204Z 17012KT 33/14 A2988 RMK A01 T03310140  RH  031%=      5-min Rain = 0
KAM1 210205Z 16014KT 33/14 A2988 RMK A01 T03310140  RH  032%=      5-min Rain = 0
KAM1 210206Z 16013KT 33/14 A2988 RMK A01 T03310140  RH  032%=      5-min Rain = 0
KAM1 210207Z 16014KT 33/14 A2988 RMK A01 T03310140  RH  032%=      5-min Rain = 0
KAM1 210208Z 16012KT 33/14 A2988 RMK A01 T03310140  RH  031%=      5-min Rain = 0
KAM1 210209Z 16012KT 33/14 A2988 RMK A01 T03310140  RH  032%=      5-min Rain = 0
KAM1 210210Z 16011KT 33/14 A2988 RMK A01 T03300139  RH  032%=      5-min Rain = 0
KAM1 210211Z 16012KT 33/14 A2988 RMK A01 T03290140  RH  032%=      5-min Rain = 0
KAM1 210212Z 16012KT 33/14 A2988 RMK A01 T03290140  RH  032%=      5-min Rain = 0
KAM1 210213Z 16012KT 33/14 A2988 RMK A01 T03290139  RH  032%=      5-min Rain = 0
KAM1 210214Z 16013KT 33/14 A2988 RMK A01 T03280139  RH  032%=      5-min Rain = 0
KAM1 210215Z 16012KT 33/14 A2988 RMK A01 T03280139  RH  032%=      5-min Rain = 0
KAM1 210216Z 16013KT 33/14 A2988 RMK A01 T03290140  RH  032%=      5-min Rain = 0
KAM1 210217Z 16012KT 33/14 A2988 RMK A01 T03280139  RH  032%=      5-min Rain = 0
KAM1 210218Z 16012KT 33/14 A2988 RMK A01 T03280139  RH  032%=      5-min Rain = 0
KAM1 210219Z 16011KT 33/14 A2988 RMK A01 T03280139  RH  032%=      5-min Rain = 0
KAM1 210220Z 16012KT 33/14 A2988 RMK A01 T03270140  RH  032%=      5-min Rain = 0
KAM1 210221Z 16012KT 33/14 A2988 RMK A01 T03260139  RH  032%=      5-min Rain = 0
KAM1 210222Z 16011KT 33/14 A2989 RMK A01 T03260139  RH  032%=      5-min Rain = 0
KAM1 210223Z 16015KT 33/14 A2988 RMK A01 T03260139  RH  032%=      5-min Rain = 0
KAM1 210224Z 16013KT 33/14 A2989 RMK A01 T03260139  RH  032%=      5-min Rain = 0
KAM1 210225Z 16012KT 33/14 A2989 RMK A01 T03270139  RH  032%=      5-min Rain = 0
KAM1 210226Z 16013KT 33/14 A2989 RMK A01 T03260139  RH  032%=      5-min Rain = 0
KAM1 210227Z 16011KT 33/14 A2989 RMK A01 T03260139  RH  032%=      5-min Rain = 0
KAM1 210228Z 16012KT 33/14 A2989 RMK A01 T03260138  RH  032%=      5-min Rain = 0
KAM1 210229Z 16011KT 33/14 A2989 RMK A01 T03260138  RH  032%=      5-min Rain = 0
KAM1 210230Z 15011KT 33/14 A2989 RMK A01 T03250138  RH  032%=      5-min Rain = 0
KAM1 210231Z 16013KT 32/14 A2989 RMK A01 T03240138  RH  032%=      5-min Rain = 0
KAM1 210232Z 15012KT 32/14 A2989 RMK A01 T03240138  RH  032%=      5-min Rain = 0
KAM1 210233Z 16011KT 33/14 A2989 RMK A01 T03250138  RH  032%=      5-min Rain = 0
KAM1 210234Z 15011KT 33/14 A2989 RMK A01 T03250138  RH  032%=      5-min Rain = 0
KAM1 210235Z 16011KT 33/14 A2989 RMK A01 T03250138  RH  032%=      5-min Rain = 0
KAM1 210236Z 15011KT 32/14 A2989 RMK A01 T03240138  RH  032%=      5-min Rain = 0
KAM1 210237Z 15011KT 32/14 A2989 RMK A01 T03230137  RH  033%=      5-min Rain = 0
KAM1 210238Z 15011KT 32/14 A2989 RMK A01 T03230138  RH  033%=      5-min Rain = 0
KAM1 210239Z 15012KT 32/14 A2989 RMK A01 T03220137  RH  033%=      5-min Rain = 0
KAM1 210240Z 16011KT 32/14 A2989 RMK A01 T03210137  RH  033%=      5-min Rain = 0
KAM1 210241Z 15011KT 32/14 A2989 RMK A01 T03220137  RH  033%=      5-min Rain = 0
KAM1 210242Z 15011KT 32/14 A2989 RMK A01 T03220137  RH  033%=      5-min Rain = 0
KAM1 210243Z 15012KT 32/14 A2989 RMK A01 T03210136  RH  033%=      5-min Rain = 0
KAM1 210244Z 16012KT 32/14 A2989 RMK A01 T03210136  RH  033%=      5-min Rain = 0
KAM1 210245Z 16011KT 32/14 A299 RMK A01 T03210136  RH  032%=      5-min Rain = 0
KAM1 210246Z 15010KT 32/14 A299 RMK A01 T03210136  RH  032%=      5-min Rain = 0
KAM1 210247Z 16010KT 32/14 A299 RMK A01 T03210136  RH  033%=      5-min Rain = 0
KAM1 210248Z 15010KT 32/14 A299 RMK A01 T03200136  RH  033%=      5-min Rain = 0
KAM1 210249Z 16010KT 32/14 A299 RMK A01 T03200135  RH  033%=      5-min Rain = 0
KAM1 210250Z 15011KT 32/14 A299 RMK A01 T03190135  RH  033%=      5-min Rain = 0
KAM1 210251Z 16011KT 32/14 A299 RMK A01 T03190135  RH  033%=      5-min Rain = 0
KAM1 210252Z 15010KT 32/14 A299 RMK A01 T03190135  RH  033%=      5-min Rain = 0
KAM1 210253Z 16011KT 32/14 A299 RMK A01 T03190135  RH  033%=      5-min Rain = 0
KAM1 210254Z 15010KT 32/13 A299 RMK A01 T03180134  RH  033%=      5-min Rain = 0
KAM1 210255Z 15008KT 32/13 A299 RMK A01 T03190134  RH  033%=      5-min Rain = 0
KAM1 210256Z 15011KT 32/13 A299 RMK A01 T03180134  RH  033%=      5-min Rain = 0
KAM1 210257Z 16010KT 32/13 A299 RMK A01 T03180134  RH  033%=      5-min Rain = 0
KAM1 210258Z 16010KT 32/13 A2991 RMK A01 T03180134  RH  033%=      5-min Rain = 0
KAM1 210259Z 16011KT 32/13 A2991 RMK A01 T03190134  RH  033%=      5-min Rain = 0
KAM1 210300Z 15010KT 32/13 A2991 RMK A01 T03180134  RH  033%=      5-min Rain = 0
KAM1 210301Z 16011KT 32/13 A2991 RMK A01 T03170134  RH  033%=      5-min Rain = 0
KAM1 210302Z 15010KT 32/13 A2991 RMK A01 T03170134  RH  033%=      5-min Rain = 0
KAM1 210303Z 15010KT 32/13 A2991 RMK A01 T03170134  RH  033%=      5-min Rain = 0
KAM1 210304Z 16010KT 32/13 A2991 RMK A01 T03160133  RH  033%=      5-min Rain = 0
KAM1 210305Z 15011KT 32/13 A2991 RMK A01 T03150133  RH  033%=      5-min Rain = 0
KAM1 210306Z 15010KT 32/13 A2991 RMK A01 T03150133  RH  033%=      5-min Rain = 0
KAM1 210307Z 15011KT 32/13 A2991 RMK A01 T03160133  RH  033%=      5-min Rain = 0
KAM1 210308Z 16010KT 32/13 A2991 RMK A01 T03160133  RH  033%=      5-min Rain = 0
KAM1 210309Z 15011KT 32/13 A2991 RMK A01 T03150133  RH  033%=      5-min Rain = 0
KAM1 210310Z 15010KT 32/13 A2991 RMK A01 T03150133  RH  033%=      5-min Rain = 0
KAM1 210311Z 15010KT 32/13 A2991 RMK A01 T03150133  RH  033%=      5-min Rain = 0
KAM1 210312Z 15010KT 32/13 A2991 RMK A01 T03150133  RH  033%=      5-min Rain = 0
KAM1 210313Z 15009KT 31/13 A2991 RMK A01 T03140132  RH  033%=      5-min Rain = 0
KAM1 210314Z 15009KT 31/13 A2991 RMK A01 T03140133  RH  033%=      5-min Rain = 0
KAM1 210315Z 15010KT 31/13 A2991 RMK A01 T03140133  RH  033%=      5-min Rain = 0
KAM1 210316Z 16011KT 31/13 A2991 RMK A01 T03130132  RH  033%=      5-min Rain = 0
KAM1 210317Z 15010KT 31/13 A2991 RMK A01 T03130132  RH  033%=      5-min Rain = 0
KAM1 210318Z 15011KT 31/13 A2991 RMK A01 T03140132  RH  033%=      5-min Rain = 0
KAM1 210319Z 15010KT 31/13 A2991 RMK A01 T03130132  RH  033%=      5-min Rain = 0
KAM1 210320Z 15011KT 31/13 A2992 RMK A01 T03140132  RH  033%=      5-min Rain = 0
KAM1 210321Z 15011KT 32/13 A2992 RMK A01 T03150133  RH  033%=      5-min Rain = 0
KAM1 210322Z 15010KT 31/13 A2992 RMK A01 T03140133  RH  033%=      5-min Rain = 0
KAM1 210323Z 16011KT 31/13 A2992 RMK A01 T03140133  RH  033%=      5-min Rain = 0
KAM1 210324Z 15013KT 31/13 A2992 RMK A01 T03140133  RH  033%=      5-min Rain = 0
KAM1 210325Z 15011KT 32/13 A2992 RMK A01 T03150133  RH  033%=      5-min Rain = 0
KAM1 210326Z 16010KT 32/13 A2992 RMK A01 T03150133  RH  033%=      5-min Rain = 0
KAM1 210327Z 15011KT 32/13 A2992 RMK A01 T03150134  RH  033%=      5-min Rain = 0
KAM1 210328Z 15011KT 32/13 A2992 RMK A01 T03150134  RH  033%=      5-min Rain = 0
KAM1 210329Z 15010KT 32/13 A2992 RMK A01 T03150134  RH  033%=      5-min Rain = 0
KAM1 210330Z 15011KT 32/13 A2992 RMK A01 T03150134  RH  033%=      5-min Rain = 0
KAM1 210331Z 15010KT 32/13 A2992 RMK A01 T03150134  RH  033%=      5-min Rain = 0
KAM1 210332Z 15012KT 31/13 A2992 RMK A01 T03140134  RH  033%=      5-min Rain = 0
KAM1 210333Z 15012KT 31/13 A2992 RMK A01 T03140134  RH  033%=      5-min Rain = 0
KAM1 210334Z 15011KT 32/13 A2992 RMK A01 T03150134  RH  033%=      5-min Rain = 0
KAM1 210335Z 15010KT 32/13 A2992 RMK A01 T03150134  RH  033%=      5-min Rain = 0
KAM1 210336Z 15010KT 32/13 A2992 RMK A01 T03150134  RH  033%=      5-min Rain = 0
KAM1 210337Z 15009KT 31/14 A2992 RMK A01 T03140135  RH  034%=      5-min Rain = 0
KAM1 210338Z 15009KT 31/14 A2992 RMK A01 T03130135  RH  034%=      5-min Rain = 0
KAM1 210339Z 15010G15KT 31/14 A2992 RMK A01 T03120135  RH  034%=      5-min Rain = 0
KAM1 210340Z 15012KT 31/14 A2993 RMK A01 T03120135  RH  034%=      5-min Rain = 0
KAM1 210341Z 15010KT 31/14 A2993 RMK A01 T03130135  RH  034%=      5-min Rain = 0
KAM1 210342Z 15010KT 31/14 A2993 RMK A01 T03130135  RH  034%=      5-min Rain = 0
KAM1 210343Z 15010KT 31/14 A2993 RMK A01 T03120135  RH  034%=      5-min Rain = 0
KAM1 210344Z 15010KT 31/14 A2993 RMK A01 T03110135  RH  034%=      5-min Rain = 0
KAM1 210345Z 15009KT 31/14 A2993 RMK A01 T03110135  RH  034%=      5-min Rain = 0
KAM1 210346Z 15010KT 31/14 A2993 RMK A01 T03110136  RH  034%=      5-min Rain = 0
KAM1 210347Z 15009KT 31/14 A2993 RMK A01 T03100136  RH  035%=      5-min Rain = 0
KAM1 210348Z 15009KT 31/14 A2993 RMK A01 T03100136  RH  035%=      5-min Rain = 0
KAM1 210349Z 15008KT 31/14 A2993 RMK A01 T03100136  RH  035%=      5-min Rain = 0
KAM1 210350Z 15009KT 31/14 A2993 RMK A01 T03090136  RH  035%=      5-min Rain = 0
KAM1 210351Z 14010KT 31/14 A2993 RMK A01 T03090137  RH  035%=      5-min Rain = 0
KAM1 210352Z 15009KT 31/14 A2993 RMK A01 T03080137  RH  035%=      5-min Rain = 0
KAM1 210353Z 14009KT 31/14 A2993 RMK A01 T03080137  RH  035%=      5-min Rain = 0
KAM1 210354Z 14009KT 31/14 A2993 RMK A01 T03080138  RH  035%=      5-min Rain = 0
KAM1 210355Z 15010KT 31/14 A2993 RMK A01 T03080138  RH  036%=      5-min Rain = 0
KAM1 210356Z 15011KT 31/14 A2993 RMK A01 T03070138  RH  036%=      5-min Rain = 0
KAM1 210357Z 14012KT 31/14 A2993 RMK A01 T03080138  RH  035%=      5-min Rain = 0
KAM1 210358Z 14012G17KT 31/14 A2993 RMK A01 T03090139  RH  035%=      5-min Rain = 0
KAM1 210359Z 15014KT 31/14 A2993 RMK A01 T03090139  RH  036%=      5-min Rain = 0
KAM1 210400Z 14017KT 31/14 A2993 RMK A01 T03100140  RH  036%=      5-min Rain = 0
KAM1 210401Z 14013KT 31/14 A2994 RMK A01 T03110142  RH  036%=      5-min Rain = 0
KAM1 210402Z 15015G20KT 31/14 A2994 RMK A01 T03120143  RH  036%=      5-min Rain = 0
KAM1 210403Z 15018KT 31/14 A2994 RMK A01 T03110143  RH  036%=      5-min Rain = 0
KAM1 210404Z 15016KT 31/14 A2994 RMK A01 T03120144  RH  036%=      5-min Rain = 0
KAM1 210405Z 15015KT 31/15 A2994 RMK A01 T03130145  RH  036%=      5-min Rain = 0
KAM1 210406Z 14014KT 31/15 A2994 RMK A01 T03130145  RH  036%=      5-min Rain = 0
KAM1 210407Z 14016KT 31/15 A2994 RMK A01 T03120146  RH  036%=      5-min Rain = 0
KAM1 210408Z 15014KT 31/15 A2994 RMK A01 T03110146  RH  037%=      5-min Rain = 0
KAM1 210409Z 15013KT 31/15 A2994 RMK A01 T03100146  RH  037%=      5-min Rain = 0
KAM1 210410Z 14014KT 31/15 A2994 RMK A01 T03100146  RH  037%=      5-min Rain = 0
KAM1 210411Z 15013KT 31/15 A2994 RMK A01 T03090146  RH  037%=      5-min Rain = 0
KAM1 210412Z 14012KT 31/15 A2994 RMK A01 T03080146  RH  037%=      5-min Rain = 0
KAM1 210413Z 14013KT 31/15 A2994 RMK A01 T03080146  RH  038%=      5-min Rain = 0
KAM1 210414Z 15011KT 31/15 A2994 RMK A01 T03070147  RH  038%=      5-min Rain = 0
KAM1 210415Z 15013KT 31/15 A2994 RMK A01 T03060146  RH  038%=      5-min Rain = 0
KAM1 210416Z 15012KT 31/15 A2994 RMK A01 T03050147  RH  038%=      5-min Rain = 0
KAM1 210417Z 15011KT 31/15 A2994 RMK A01 T03050147  RH  038%=      5-min Rain = 0
KAM1 210418Z 15012KT 30/15 A2994 RMK A01 T03040147  RH  038%=      5-min Rain = 0
KAM1 210419Z 15011KT 30/15 A2994 RMK A01 T03030147  RH  039%=      5-min Rain = 0
KAM1 210420Z 15014KT 30/15 A2994 RMK A01 T03020147  RH  039%=      5-min Rain = 0
KAM1 210421Z 15012KT 30/15 A2994 RMK A01 T03030147  RH  039%=      5-min Rain = 0
KAM1 210422Z 15012KT 30/15 A2994 RMK A01 T03030148  RH  039%=      5-min Rain = 0
KAM1 210423Z 15012G17KT 30/15 A2994 RMK A01 T03030148  RH  039%=      5-min Rain = 0
KAM1 210424Z 15012KT 30/15 A2994 RMK A01 T03020148  RH  039%=      5-min Rain = 0
KAM1 210425Z 15014KT 30/15 A2994 RMK A01 T03020147  RH  039%=      5-min Rain = 0
KAM1 210426Z 15013KT 30/15 A2994 RMK A01 T03020148  RH  039%=      5-min Rain = 0
KAM1 210427Z 15013KT 30/15 A2994 RMK A01 T03020148  RH  039%=      5-min Rain = 0
KAM1 210428Z 15012KT 30/15 A2994 RMK A01 T03020148  RH  039%=      5-min Rain = 0
KAM1 210429Z 15012KT 30/15 A2994 RMK A01 T03020148  RH  039%=      5-min Rain = 0
KAM1 210430Z 15012KT 30/15 A2994 RMK A01 T03010148  RH  039%=      5-min Rain = 0
KAM1 210431Z 15012KT 30/15 A2994 RMK A01 T03000148  RH  040%=      5-min Rain = 0
KAM1 210432Z 15012KT 30/15 A2994 RMK A01 T02990148  RH  040%=      5-min Rain = 0
KAM1 210433Z 15013KT 30/15 A2994 RMK A01 T02990148  RH  040%=      5-min Rain = 0
KAM1 210434Z 15011KT 30/15 A2994 RMK A01 T02990148  RH  040%=      5-min Rain = 0
KAM1 210435Z 15010G15KT 30/15 A2994 RMK A01 T02990149  RH  040%=      5-min Rain = 0
KAM1 210436Z 15014KT 30/15 A2994 RMK A01 T02980149  RH  040%=      5-min Rain = 0
KAM1 210437Z 15014KT 30/15 A2994 RMK A01 T02980149  RH  040%=      5-min Rain = 0
KAM1 210438Z 15012KT 30/15 A2994 RMK A01 T02980149  RH  040%=      5-min Rain = 0
KAM1 210439Z 15011KT 30/15 A2994 RMK A01 T02980150  RH  040%=      5-min Rain = 0
KAM1 210440Z 15012G17KT 30/15 A2994 RMK A01 T02980150  RH  041%=      5-min Rain = 0
KAM1 210441Z 15013KT 30/15 A2994 RMK A01 T02980150  RH  041%=      5-min Rain = 0
KAM1 210442Z 15012G17KT 30/15 A2994 RMK A01 T02980150  RH  041%=      5-min Rain = 0
KAM1 210443Z 15015KT 30/15 A2994 RMK A01 T02980150  RH  041%=      5-min Rain = 0
KAM1 210444Z 16016KT 30/15 A2994 RMK A01 T02980150  RH  041%=      5-min Rain = 0
KAM1 210445Z 15014KT 30/15 A2994 RMK A01 T02990151  RH  040%=      5-min Rain = 0
KAM1 210446Z 15014KT 30/15 A2994 RMK A01 T02990151  RH  040%=      5-min Rain = 0
KAM1 210447Z 16012KT 30/15 A2994 RMK A01 T02990151  RH  040%=      5-min Rain = 0
KAM1 210448Z 15014G21KT 30/15 A2994 RMK A01 T02990151  RH  041%=      5-min Rain = 0
KAM1 210449Z 15014G20KT 30/15 A2994 RMK A01 T02980151  RH  041%=      5-min Rain = 0
KAM1 210450Z 16013KT 30/15 A2994 RMK A01 T02990151  RH  041%=      5-min Rain = 0
KAM1 210451Z 15015KT 30/15 A2994 RMK A01 T02990151  RH  041%=      5-min Rain = 0
KAM1 210452Z 16013KT 30/15 A2994 RMK A01 T02990150  RH  041%=      5-min Rain = 0
KAM1 210453Z 16013KT 30/15 A2994 RMK A01 T02990150  RH  041%=      5-min Rain = 0
KAM1 210454Z 16012KT 30/15 A2994 RMK A01 T02980151  RH  041%=      5-min Rain = 0
KAM1 210455Z 15011G16KT 30/15 A2994 RMK A01 T02970151  RH  041%=      5-min Rain = 0
KAM1 210456Z 16012KT 30/15 A2994 RMK A01 T02970150  RH  041%=      5-min Rain = 0
KAM1 210457Z 16012KT 30/15 A2994 RMK A01 T02960151  RH  041%=      5-min Rain = 0
KAM1 210458Z 16012KT 30/15 A2994 RMK A01 T02960150  RH  041%=      5-min Rain = 0
KAM1 210459Z 15014KT 30/15 A2994 RMK A01 T02960150  RH  041%=      5-min Rain = 0

Page generated in 0.0724 seconds.